SWR188 LSZH-ZSPD
Flight info
| Callsign | SWR188 |
|---|---|
| Flight time | N/A |
| Altitude | 37000 |
| Route | DEGES5L DEGES Z2 XEBIX DCT UMVEG DCT DIMLO DCT INVED DCT TOSVI DCT DINRO DCT UDROS DCT CRM DCT ROLIN DCT TETRO DCT BARAD M747 LUSAL N701 LARGI B701 KRS A480 IDRIS/N0480F390 A480 OTBOR/K0891F390 N147 GENGA N143 RUDIZ N161 SARIN/K0895S1190 A368 FKG W188 BATUS/K0895S1250 W188 GOVSA W66 DKO W64 NUTLO B208 CGO W129 KAMDA W128 FYG B208 HFE R343 SASAN SAS82A |
| Aircraft | A359/H-SDE2E3GHIJ1J3J4J5LM1ORWXYZ/LB1D1 |
Departure
| Time | 2026-04-25 21:38 |
|---|---|
| Airport | Zürich Airport (LSZH) |
Arrival
| Time | N/A |
|---|---|
| Airport | Shanghai Pudong International Airport (ZSPD) |
| Time | Latitude | Longitude | Altitude | Speed | Heading |
|---|---|---|---|---|---|
| 2026-04-25 21:13 | 47.46199 | 8.55287 | 1403 ft | 0 kts | 186° |
| 2026-04-25 21:30 | 47.46204 | 8.55288 | 1403 ft | 2 kts | 185° |
| 2026-04-25 21:30 | 47.46220 | 8.55289 | 1410 ft | 2 kts | 184° |
| 2026-04-25 21:30 | 47.46236 | 8.55291 | 1403 ft | 2 kts | 181° |
| 2026-04-25 21:30 | 47.46247 | 8.55290 | 1405 ft | 2 kts | 175° |
| 2026-04-25 21:31 | 47.46268 | 8.55281 | 1412 ft | 2 kts | 126° |
| 2026-04-25 21:31 | 47.46272 | 8.55265 | 1409 ft | 1 kts | 98° |
| 2026-04-25 21:31 | 47.46273 | 8.55263 | 1409 ft | 0 kts | 97° |
| 2026-04-25 21:34 | 47.46268 | 8.55321 | 1411 ft | 9 kts | 96° |
| 2026-04-25 21:35 | 47.46260 | 8.55429 | 1405 ft | 11 kts | 96° |
| 2026-04-25 21:35 | 47.46252 | 8.55551 | 1410 ft | 12 kts | 96° |
| 2026-04-25 21:35 | 47.46242 | 8.55678 | 1404 ft | 13 kts | 97° |
| 2026-04-25 21:35 | 47.46232 | 8.55814 | 1405 ft | 14 kts | 95° |
| 2026-04-25 21:36 | 47.46217 | 8.55958 | 1410 ft | 14 kts | 114° |
| 2026-04-25 21:36 | 47.46156 | 8.56064 | 1416 ft | 13 kts | 137° |
| 2026-04-25 21:36 | 47.46091 | 8.56154 | 1416 ft | 13 kts | 137° |
| 2026-04-25 21:36 | 47.46040 | 8.56239 | 1415 ft | 11 kts | 111° |
| 2026-04-25 21:37 | 47.46059 | 8.56330 | 1412 ft | 10 kts | 46° |
| 2026-04-25 21:37 | 47.46099 | 8.56374 | 1415 ft | 12 kts | 34° |
| 2026-04-25 21:37 | 47.46209 | 8.56337 | 1410 ft | 14 kts | 320° |
| 2026-04-25 21:37 | 47.46400 | 8.56077 | 1410 ft | 73 kts | 317° |
| 2026-04-25 21:38 | 47.46951 | 8.55325 | 1412 ft | 140 kts | 317° |
| 2026-04-25 21:38 | 47.47799 | 8.54165 | 1603 ft | 181 kts | 317° |
| 2026-04-25 21:38 | 47.48726 | 8.52875 | 2394 ft | 183 kts | 319° |
| 2026-04-25 21:38 | 47.49759 | 8.51778 | 3038 ft | 185 kts | 328° |
| 2026-04-25 21:39 | 47.50805 | 8.50559 | 3287 ft | 199 kts | 317° |
| 2026-04-25 21:39 | 47.51539 | 8.48752 | 3497 ft | 217 kts | 291° |
| 2026-04-25 21:39 | 47.51800 | 8.46515 | 3891 ft | 224 kts | 275° |
| 2026-04-25 21:39 | 47.51624 | 8.44198 | 4360 ft | 227 kts | 251° |
| 2026-04-25 21:40 | 47.50762 | 8.42299 | 4827 ft | 228 kts | 220° |
| 2026-04-25 21:40 | 47.49340 | 8.41336 | 5297 ft | 227 kts | 188° |
| 2026-04-25 21:40 | 47.47769 | 8.41560 | 5703 ft | 231 kts | 161° |
| 2026-04-25 21:40 | 47.46429 | 8.42858 | 6155 ft | 234 kts | 131° |
| 2026-04-25 21:41 | 47.45707 | 8.45027 | 6474 ft | 243 kts | 100° |
| 2026-04-25 21:41 | 47.45597 | 8.47589 | 6707 ft | 257 kts | 89° |
| 2026-04-25 21:41 | 47.45632 | 8.50300 | 6948 ft | 271 kts | 88° |
| 2026-04-25 21:41 | 47.45666 | 8.53133 | 7314 ft | 279 kts | 89° |
| 2026-04-25 21:42 | 47.45693 | 8.56021 | 7793 ft | 283 kts | 88° |
| 2026-04-25 21:42 | 47.45802 | 8.58936 | 8302 ft | 286 kts | 85° |
| 2026-04-25 21:42 | 47.45936 | 8.61881 | 8821 ft | 289 kts | 85° |
| 2026-04-25 21:42 | 47.46063 | 8.64860 | 9364 ft | 292 kts | 85° |
| 2026-04-25 21:43 | 47.46182 | 8.67871 | 9906 ft | 294 kts | 85° |
| 2026-04-25 21:43 | 47.46300 | 8.70868 | 10344 ft | 300 kts | 85° |
| 2026-04-25 21:43 | 47.46420 | 8.74013 | 10589 ft | 312 kts | 85° |
| 2026-04-25 21:43 | 47.46543 | 8.77290 | 10818 ft | 325 kts | 85° |
| 2026-04-25 21:44 | 47.46658 | 8.80696 | 11043 ft | 338 kts | 87° |
| 2026-04-25 21:44 | 47.46457 | 8.84220 | 11258 ft | 351 kts | 99° |
| 2026-04-25 21:44 | 47.45411 | 8.91509 | 11686 ft | 373 kts | 101° |
| 2026-04-25 21:45 | 47.44856 | 8.95313 | 11893 ft | 383 kts | 101° |
| 2026-04-25 21:45 | 47.44485 | 8.97880 | 12047 ft | 389 kts | 101° |
| 2026-04-25 21:45 | 47.43725 | 9.03158 | 12558 ft | 394 kts | 101° |
| 2026-04-25 21:45 | 47.43150 | 9.07131 | 12958 ft | 397 kts | 101° |
| 2026-04-25 21:46 | 47.42569 | 9.11133 | 13381 ft | 399 kts | 101° |
| 2026-04-25 21:46 | 47.41993 | 9.15096 | 13788 ft | 402 kts | 101° |
| 2026-04-25 21:46 | 47.41528 | 9.19223 | 14151 ft | 403 kts | 92° |
| 2026-04-25 21:46 | 47.41657 | 9.23294 | 14495 ft | 403 kts | 81° |
| 2026-04-25 21:47 | 47.42118 | 9.27378 | 14865 ft | 403 kts | 76° |
| 2026-04-25 21:47 | 47.42734 | 9.31430 | 15262 ft | 404 kts | 74° |
| 2026-04-25 21:47 | 47.43410 | 9.35464 | 15661 ft | 405 kts | 74° |
| 2026-04-25 21:47 | 47.44095 | 9.39524 | 16036 ft | 408 kts | 74° |
| 2026-04-25 21:48 | 47.44766 | 9.43609 | 16417 ft | 410 kts | 74° |
| 2026-04-25 21:48 | 47.45420 | 9.47723 | 16807 ft | 412 kts | 75° |
| 2026-04-25 21:48 | 47.46058 | 9.51864 | 17183 ft | 414 kts | 75° |
| 2026-04-25 21:48 | 47.46681 | 9.56025 | 17554 ft | 416 kts | 76° |
| 2026-04-25 21:49 | 47.47037 | 9.60239 | 17894 ft | 421 kts | 86° |
| 2026-04-25 21:49 | 47.47033 | 9.64573 | 18268 ft | 423 kts | 89° |
| 2026-04-25 21:49 | 47.46888 | 9.68922 | 18631 ft | 425 kts | 91° |
| 2026-04-25 21:49 | 47.46659 | 9.73351 | 18905 ft | 428 kts | 92° |
| 2026-04-25 21:50 | 47.46396 | 9.77746 | 19176 ft | 431 kts | 93° |
| 2026-04-25 21:50 | 47.46122 | 9.82167 | 19448 ft | 433 kts | 92° |
| 2026-04-25 21:50 | 47.45854 | 9.86546 | 19725 ft | 435 kts | 92° |
| 2026-04-25 21:50 | 47.45673 | 9.89559 | 19907 ft | 437 kts | 92° |
| 2026-04-25 21:51 | 47.45324 | 9.95508 | 20258 ft | 440 kts | 92° |
| 2026-04-25 21:51 | 47.45064 | 10.00017 | 20528 ft | 442 kts | 92° |
| 2026-04-25 21:51 | 47.44805 | 10.04547 | 20809 ft | 444 kts | 92° |
| 2026-04-25 21:51 | 47.44544 | 10.09110 | 21087 ft | 446 kts | 92° |
| 2026-04-25 21:52 | 47.44279 | 10.13683 | 21366 ft | 449 kts | 92° |
| 2026-04-25 21:52 | 47.43918 | 10.18290 | 21631 ft | 452 kts | 96° |
| 2026-04-25 21:52 | 47.43392 | 10.22882 | 21951 ft | 454 kts | 97° |
| 2026-04-25 21:52 | 47.42810 | 10.27487 | 22195 ft | 457 kts | 98° |
| 2026-04-25 21:53 | 47.42196 | 10.32091 | 22466 ft | 459 kts | 98° |
| 2026-04-25 21:53 | 47.41561 | 10.36740 | 22703 ft | 462 kts | 98° |
| 2026-04-25 21:53 | 47.40923 | 10.41403 | 22982 ft | 463 kts | 98° |
| 2026-04-25 21:53 | 47.40289 | 10.46012 | 23245 ft | 465 kts | 98° |
| 2026-04-25 21:54 | 47.39647 | 10.50707 | 23546 ft | 467 kts | 98° |
| 2026-04-25 21:54 | 47.39030 | 10.55422 | 23798 ft | 469 kts | 97° |
| 2026-04-25 21:54 | 47.38426 | 10.60175 | 24027 ft | 471 kts | 97° |
| 2026-04-25 21:54 | 47.37824 | 10.64939 | 24227 ft | 473 kts | 97° |
| 2026-04-25 21:55 | 47.37221 | 10.69726 | 24476 ft | 474 kts | 97° |
| 2026-04-25 21:55 | 47.36613 | 10.74513 | 24718 ft | 476 kts | 97° |
| 2026-04-25 21:55 | 47.35999 | 10.79318 | 24931 ft | 478 kts | 97° |
| 2026-04-25 21:55 | 47.35380 | 10.84139 | 25149 ft | 479 kts | 98° |
| 2026-04-25 21:56 | 47.34755 | 10.88968 | 25481 ft | 479 kts | 98° |
| 2026-04-25 21:56 | 47.34340 | 10.92159 | 25656 ft | 479 kts | 98° |
| 2026-04-25 21:56 | 47.33492 | 10.98636 | 25884 ft | 482 kts | 98° |
| 2026-04-25 21:56 | 47.32854 | 11.03492 | 26064 ft | 482 kts | 98° |
| 2026-04-25 21:57 | 47.32214 | 11.08353 | 26211 ft | 484 kts | 98° |
| 2026-04-25 21:57 | 47.31567 | 11.13247 | 26372 ft | 487 kts | 98° |
| 2026-04-25 21:57 | 47.30917 | 11.18141 | 26600 ft | 488 kts | 98° |
| 2026-04-25 21:57 | 47.30260 | 11.23055 | 26807 ft | 489 kts | 98° |
| 2026-04-25 21:58 | 47.29600 | 11.27985 | 27104 ft | 490 kts | 98° |
| 2026-04-25 21:58 | 47.28939 | 11.32907 | 27357 ft | 490 kts | 98° |
| 2026-04-25 21:58 | 47.28281 | 11.37792 | 27510 ft | 494 kts | 98° |
| 2026-04-25 21:58 | 47.27611 | 11.42765 | 27752 ft | 496 kts | 98° |
| 2026-04-25 21:59 | 47.26936 | 11.47750 | 27999 ft | 497 kts | 98° |
| 2026-04-25 21:59 | 47.26256 | 11.52751 | 28216 ft | 499 kts | 98° |
| 2026-04-25 21:59 | 47.25655 | 11.57788 | 28437 ft | 499 kts | 96° |
| 2026-04-25 22:00 | 47.24709 | 11.67941 | 28877 ft | 502 kts | 94° |
| 2026-04-25 22:00 | 47.24278 | 11.73043 | 29084 ft | 504 kts | 94° |
| 2026-04-25 22:00 | 47.23850 | 11.78175 | 29294 ft | 505 kts | 94° |
| 2026-04-25 22:00 | 47.23420 | 11.83323 | 29512 ft | 507 kts | 94° |
| 2026-04-25 22:01 | 47.23132 | 11.86741 | 29681 ft | 508 kts | 94° |
| 2026-04-25 22:01 | 47.22692 | 11.91895 | 29903 ft | 509 kts | 94° |
| 2026-04-25 22:01 | 47.22244 | 11.97060 | 30152 ft | 510 kts | 94° |
| 2026-04-25 22:01 | 47.21945 | 12.00486 | 30327 ft | 509 kts | 95° |
| 2026-04-25 22:02 | 47.21335 | 12.07391 | 30707 ft | 508 kts | 95° |
| 2026-04-25 22:02 | 47.20877 | 12.12553 | 30941 ft | 509 kts | 95° |
| 2026-04-25 22:02 | 47.20417 | 12.17711 | 31203 ft | 509 kts | 95° |
| 2026-04-25 22:02 | 47.19954 | 12.22862 | 31478 ft | 508 kts | 95° |
| 2026-04-25 22:03 | 47.19489 | 12.28019 | 31730 ft | 508 kts | 95° |
| 2026-04-25 22:03 | 47.19022 | 12.33173 | 31978 ft | 508 kts | 95° |
| 2026-04-25 22:03 | 47.18558 | 12.38263 | 32219 ft | 508 kts | 95° |
| 2026-04-25 22:03 | 47.18088 | 12.43407 | 32458 ft | 508 kts | 95° |
| 2026-04-25 22:04 | 47.17616 | 12.48548 | 32747 ft | 507 kts | 95° |
| 2026-04-25 22:04 | 47.17143 | 12.53672 | 33033 ft | 506 kts | 95° |
| 2026-04-25 22:04 | 47.16667 | 12.58791 | 33263 ft | 506 kts | 95° |
| 2026-04-25 22:04 | 47.16188 | 12.63923 | 33460 ft | 507 kts | 95° |
| 2026-04-25 22:05 | 47.15707 | 12.69052 | 33701 ft | 506 kts | 95° |
| 2026-04-25 22:05 | 47.15224 | 12.74175 | 33947 ft | 506 kts | 95° |
| 2026-04-25 22:05 | 47.14738 | 12.79301 | 34153 ft | 506 kts | 95° |
| 2026-04-25 22:05 | 47.14252 | 12.84415 | 34331 ft | 506 kts | 96° |
| 2026-04-25 22:06 | 47.13762 | 12.89537 | 34539 ft | 505 kts | 95° |
| 2026-04-25 22:06 | 47.13271 | 12.94640 | 34792 ft | 504 kts | 96° |
| 2026-04-25 22:06 | 47.12780 | 12.99726 | 34996 ft | 503 kts | 96° |
| 2026-04-25 22:06 | 47.12287 | 13.04815 | 35136 ft | 504 kts | 96° |
| 2026-04-25 22:07 | 47.11789 | 13.09922 | 35271 ft | 504 kts | 96° |
| 2026-04-25 22:07 | 47.11459 | 13.13289 | 35405 ft | 503 kts | 96° |
| 2026-04-25 22:07 | 47.10790 | 13.20096 | 35657 ft | 503 kts | 96° |
| 2026-04-25 22:07 | 47.10294 | 13.25125 | 35802 ft | 504 kts | 96° |
| 2026-04-25 22:08 | 47.09790 | 13.30215 | 35996 ft | 503 kts | 96° |
| 2026-04-25 22:08 | 47.09286 | 13.35288 | 36167 ft | 503 kts | 96° |
| 2026-04-25 22:08 | 47.08776 | 13.40375 | 36310 ft | 502 kts | 96° |
| 2026-04-25 22:08 | 47.08264 | 13.45449 | 36464 ft | 503 kts | 96° |
| 2026-04-25 22:09 | 47.07750 | 13.50521 | 36602 ft | 503 kts | 96° |
| 2026-04-25 22:09 | 47.07234 | 13.55600 | 36751 ft | 503 kts | 96° |
| 2026-04-25 22:09 | 47.06717 | 13.60671 | 36865 ft | 503 kts | 96° |
| 2026-04-25 22:09 | 47.06196 | 13.65745 | 37011 ft | 503 kts | 96° |
| 2026-04-25 22:10 | 47.05145 | 13.75927 | 37083 ft | 507 kts | 97° |
| 2026-04-25 22:10 | 47.04078 | 13.86177 | 37085 ft | 509 kts | 97° |
| 2026-04-25 22:11 | 47.03001 | 13.96418 | 37075 ft | 508 kts | 97° |
| 2026-04-25 22:11 | 47.01917 | 14.06641 | 37085 ft | 508 kts | 97° |
| 2026-04-25 22:12 | 47.00833 | 14.16795 | 37078 ft | 508 kts | 97° |
| 2026-04-25 22:12 | 46.99908 | 14.25374 | 37072 ft | 508 kts | 97° |
| 2026-04-25 22:13 | 46.98614 | 14.37261 | 37070 ft | 508 kts | 97° |
| 2026-04-25 22:13 | 46.97490 | 14.47494 | 37070 ft | 508 kts | 97° |
| 2026-04-25 22:14 | 46.96359 | 14.57712 | 37063 ft | 508 kts | 97° |
| 2026-04-25 22:14 | 46.95226 | 14.67862 | 37065 ft | 509 kts | 97° |
| 2026-04-25 22:15 | 46.94076 | 14.78078 | 37056 ft | 509 kts | 97° |
| 2026-04-25 22:16 | 46.92335 | 14.93395 | 37048 ft | 508 kts | 98° |
| 2026-04-25 22:16 | 46.91164 | 15.03583 | 37039 ft | 508 kts | 98° |
| 2026-04-25 22:17 | 46.89984 | 15.13764 | 37034 ft | 508 kts | 98° |
| 2026-04-25 22:17 | 46.88794 | 15.23948 | 37025 ft | 508 kts | 98° |
| 2026-04-25 22:18 | 46.87595 | 15.34142 | 37023 ft | 509 kts | 99° |
| 2026-04-25 22:18 | 46.86383 | 15.44364 | 37021 ft | 511 kts | 99° |
| 2026-04-25 22:19 | 46.85159 | 15.54592 | 37019 ft | 511 kts | 99° |
| 2026-04-25 22:19 | 46.83926 | 15.64816 | 37019 ft | 511 kts | 99° |
| 2026-04-25 22:20 | 46.82691 | 15.74982 | 37018 ft | 513 kts | 100° |
| 2026-04-25 22:20 | 46.81431 | 15.85273 | 37013 ft | 515 kts | 100° |
| 2026-04-25 22:21 | 46.80159 | 15.95581 | 37009 ft | 515 kts | 100° |
| 2026-04-25 22:21 | 46.78877 | 16.05888 | 37008 ft | 515 kts | 100° |
| 2026-04-25 22:22 | 46.77589 | 16.16166 | 37001 ft | 515 kts | 100° |
| 2026-04-25 22:22 | 46.76291 | 16.26446 | 37001 ft | 515 kts | 100° |
| 2026-04-25 22:23 | 46.74990 | 16.36672 | 37001 ft | 515 kts | 100° |
| 2026-04-25 22:23 | 46.73672 | 16.46954 | 36989 ft | 516 kts | 101° |
| 2026-04-25 22:24 | 46.72341 | 16.57270 | 37000 ft | 520 kts | 101° |
| 2026-04-25 22:24 | 46.70987 | 16.67675 | 36999 ft | 523 kts | 101° |
| 2026-04-25 22:25 | 46.69622 | 16.78083 | 36996 ft | 523 kts | 101° |
| 2026-04-25 22:25 | 46.68257 | 16.88421 | 36995 ft | 523 kts | 101° |
| 2026-04-25 22:26 | 46.66871 | 16.98835 | 36993 ft | 524 kts | 101° |
| 2026-04-25 22:26 | 46.65478 | 17.09238 | 36994 ft | 524 kts | 101° |
| 2026-04-25 22:27 | 46.64072 | 17.19650 | 36994 ft | 523 kts | 101° |
| 2026-04-25 22:27 | 46.62660 | 17.30042 | 36992 ft | 524 kts | 101° |
| 2026-04-25 22:28 | 46.61235 | 17.40447 | 36992 ft | 524 kts | 102° |
| 2026-04-25 22:28 | 46.59809 | 17.50786 | 36991 ft | 524 kts | 102° |
| 2026-04-25 22:29 | 46.58366 | 17.61174 | 36986 ft | 524 kts | 102° |
| 2026-04-25 22:29 | 46.56911 | 17.71581 | 36985 ft | 526 kts | 102° |
| 2026-04-25 22:30 | 46.54700 | 17.87251 | 36988 ft | 528 kts | 102° |
| 2026-04-25 22:30 | 46.53465 | 17.95935 | 36991 ft | 528 kts | 102° |
| 2026-04-25 22:31 | 46.51724 | 18.08088 | 36988 ft | 529 kts | 102° |
| 2026-04-25 22:31 | 46.50216 | 18.18540 | 36985 ft | 529 kts | 102° |
| 2026-04-25 22:32 | 46.48696 | 18.29003 | 36985 ft | 529 kts | 102° |
| 2026-04-25 22:32 | 46.47167 | 18.39452 | 36983 ft | 529 kts | 102° |
| 2026-04-25 22:33 | 46.45628 | 18.49901 | 36979 ft | 529 kts | 102° |
| 2026-04-25 22:33 | 46.44080 | 18.60345 | 36979 ft | 529 kts | 102° |
| 2026-04-25 22:34 | 46.42533 | 18.70709 | 36979 ft | 529 kts | 102° |
| 2026-04-25 22:34 | 46.40965 | 18.81137 | 36977 ft | 530 kts | 102° |
| 2026-04-25 22:35 | 46.39386 | 18.91575 | 36976 ft | 530 kts | 102° |
| 2026-04-25 22:35 | 46.37798 | 19.02010 | 36971 ft | 531 kts | 102° |
| 2026-04-25 22:36 | 46.36197 | 19.12455 | 36977 ft | 531 kts | 102° |
| 2026-04-25 22:36 | 46.34588 | 19.22885 | 36977 ft | 531 kts | 102° |
| 2026-04-25 22:37 | 46.32971 | 19.33305 | 36974 ft | 531 kts | 102° |
| 2026-04-25 22:37 | 46.31344 | 19.43718 | 36974 ft | 531 kts | 103° |
| 2026-04-25 22:38 | 46.29718 | 19.54056 | 36976 ft | 531 kts | 103° |
| 2026-04-25 22:38 | 46.28071 | 19.64462 | 36976 ft | 531 kts | 103° |
| 2026-04-25 22:39 | 46.26416 | 19.74857 | 36976 ft | 530 kts | 103° |
| 2026-04-25 22:39 | 46.24752 | 19.85243 | 36981 ft | 530 kts | 103° |
| 2026-04-25 22:40 | 46.23077 | 19.95630 | 36976 ft | 530 kts | 103° |
| 2026-04-25 22:40 | 46.21392 | 20.06012 | 36974 ft | 530 kts | 103° |
| 2026-04-25 22:41 | 46.19711 | 20.16313 | 36973 ft | 530 kts | 103° |
| 2026-04-25 22:41 | 46.18007 | 20.26682 | 36974 ft | 530 kts | 103° |
| 2026-04-25 22:42 | 46.16292 | 20.37034 | 36976 ft | 531 kts | 104° |
| 2026-04-25 22:42 | 46.13925 | 20.47132 | 36977 ft | 532 kts | 111° |
| 2026-04-25 22:43 | 46.11277 | 20.57092 | 36977 ft | 532 kts | 112° |
| 2026-04-25 22:43 | 46.08575 | 20.67016 | 36979 ft | 532 kts | 112° |
| 2026-04-25 22:44 | 46.05869 | 20.76945 | 36982 ft | 532 kts | 112° |
| 2026-04-25 22:44 | 46.03168 | 20.86860 | 36981 ft | 532 kts | 112° |
| 2026-04-25 22:45 | 46.00477 | 20.96716 | 36980 ft | 532 kts | 112° |
| 2026-04-25 22:45 | 45.97761 | 21.06623 | 36980 ft | 532 kts | 112° |
| 2026-04-25 22:46 | 45.95039 | 21.16513 | 36992 ft | 532 kts | 112° |
| 2026-04-25 22:46 | 45.92307 | 21.26394 | 36993 ft | 532 kts | 112° |
| 2026-04-25 22:47 | 45.89587 | 21.36190 | 36994 ft | 532 kts | 112° |
| 2026-04-25 22:47 | 45.86837 | 21.46053 | 36993 ft | 531 kts | 112° |
| 2026-04-25 22:48 | 45.84080 | 21.55903 | 36995 ft | 531 kts | 112° |
| 2026-04-25 22:48 | 45.81317 | 21.65735 | 37001 ft | 531 kts | 112° |
| 2026-04-25 22:49 | 45.78545 | 21.75560 | 37002 ft | 531 kts | 112° |
| 2026-04-25 22:49 | 45.76235 | 21.83715 | 37002 ft | 531 kts | 112° |
| 2026-04-25 22:50 | 45.73446 | 21.93527 | 37004 ft | 531 kts | 112° |
| 2026-04-25 22:50 | 45.70650 | 22.03325 | 37007 ft | 531 kts | 112° |
| 2026-04-25 22:51 | 45.67864 | 22.13048 | 37006 ft | 532 kts | 112° |
| 2026-04-25 22:51 | 45.65049 | 22.22835 | 37015 ft | 532 kts | 112° |
| 2026-04-25 22:52 | 45.62231 | 22.32593 | 37019 ft | 532 kts | 112° |
| 2026-04-25 22:52 | 45.59396 | 22.42368 | 37024 ft | 532 kts | 112° |
| 2026-04-25 22:53 | 45.56563 | 22.52098 | 37026 ft | 532 kts | 112° |
| 2026-04-25 22:53 | 45.53715 | 22.61845 | 37031 ft | 532 kts | 112° |
| 2026-04-25 22:54 | 45.50861 | 22.71576 | 37026 ft | 531 kts | 113° |
| 2026-04-25 22:54 | 45.48009 | 22.81260 | 37029 ft | 531 kts | 113° |
| 2026-04-25 22:55 | 45.45147 | 22.90946 | 37018 ft | 530 kts | 113° |
| 2026-04-25 22:55 | 45.42286 | 23.00589 | 37041 ft | 529 kts | 113° |
| 2026-04-25 22:56 | 45.39406 | 23.10242 | 37032 ft | 530 kts | 113° |
| 2026-04-25 22:56 | 45.36516 | 23.19897 | 37025 ft | 530 kts | 113° |
| 2026-04-25 22:57 | 45.33631 | 23.29510 | 37023 ft | 529 kts | 113° |
| 2026-04-25 22:57 | 45.30731 | 23.39133 | 37024 ft | 530 kts | 113° |
| 2026-04-25 22:58 | 45.27830 | 23.48723 | 37013 ft | 529 kts | 113° |
| 2026-04-25 22:58 | 45.24914 | 23.58324 | 37017 ft | 530 kts | 113° |
| 2026-04-25 22:59 | 45.21992 | 23.67911 | 37009 ft | 529 kts | 113° |
| 2026-04-25 22:59 | 45.19055 | 23.77507 | 37013 ft | 529 kts | 113° |
| 2026-04-25 23:00 | 45.16134 | 23.87017 | 37014 ft | 529 kts | 113° |
| 2026-04-25 23:00 | 45.13190 | 23.96567 | 37011 ft | 529 kts | 113° |
| 2026-04-25 23:01 | 45.10236 | 24.06112 | 37003 ft | 528 kts | 114° |
| 2026-04-25 23:01 | 45.07271 | 24.15657 | 37002 ft | 529 kts | 114° |
| 2026-04-25 23:02 | 45.04302 | 24.25179 | 37000 ft | 530 kts | 114° |
| 2026-04-25 23:02 | 45.01335 | 24.34661 | 36997 ft | 530 kts | 114° |
| 2026-04-25 23:03 | 44.98333 | 24.44218 | 36995 ft | 529 kts | 114° |
| 2026-04-25 23:03 | 44.95356 | 24.53662 | 36993 ft | 529 kts | 114° |
| 2026-04-25 23:04 | 44.92364 | 24.63119 | 36992 ft | 528 kts | 114° |
| 2026-04-25 23:04 | 44.89359 | 24.72582 | 36991 ft | 529 kts | 114° |
| 2026-04-25 23:05 | 44.86348 | 24.82031 | 36987 ft | 528 kts | 114° |
| 2026-04-25 23:05 | 44.83328 | 24.91475 | 36982 ft | 528 kts | 114° |
| 2026-04-25 23:06 | 44.80300 | 25.00907 | 36979 ft | 528 kts | 114° |
| 2026-04-25 23:06 | 44.77276 | 25.10293 | 36977 ft | 527 kts | 114° |
| 2026-04-25 23:07 | 44.74283 | 25.19664 | 36971 ft | 527 kts | 111° |
| 2026-04-25 23:07 | 44.71669 | 25.29288 | 36971 ft | 527 kts | 109° |
| 2026-04-25 23:08 | 44.69164 | 25.39005 | 36976 ft | 527 kts | 109° |
| 2026-04-25 23:08 | 44.66608 | 25.48657 | 36968 ft | 527 kts | 110° |
| 2026-04-25 23:09 | 44.64016 | 25.58218 | 36961 ft | 526 kts | 110° |
| 2026-04-25 23:09 | 44.61393 | 25.67797 | 36968 ft | 525 kts | 110° |
| 2026-04-25 23:10 | 44.58763 | 25.77366 | 36964 ft | 524 kts | 110° |
| 2026-04-25 23:10 | 44.56134 | 25.86899 | 36964 ft | 524 kts | 110° |
| 2026-04-25 23:11 | 44.53515 | 25.96368 | 36965 ft | 524 kts | 110° |
| 2026-04-25 23:11 | 44.50872 | 26.05886 | 36966 ft | 523 kts | 110° |
| 2026-04-25 23:12 | 44.48225 | 26.15383 | 36966 ft | 523 kts | 110° |
| 2026-04-25 23:12 | 44.45574 | 26.24855 | 36965 ft | 522 kts | 110° |
| 2026-04-25 23:13 | 44.42915 | 26.34320 | 36955 ft | 522 kts | 110° |
| 2026-04-25 23:13 | 44.40248 | 26.43776 | 36955 ft | 522 kts | 110° |
| 2026-04-25 23:14 | 44.37577 | 26.53211 | 36957 ft | 522 kts | 110° |
| 2026-04-25 23:14 | 44.34899 | 26.62634 | 36958 ft | 522 kts | 110° |
| 2026-04-25 23:15 | 44.32226 | 26.72004 | 36960 ft | 522 kts | 110° |
| 2026-04-25 23:15 | 44.29534 | 26.81407 | 36963 ft | 522 kts | 110° |
| 2026-04-25 23:16 | 44.26830 | 26.90814 | 36960 ft | 522 kts | 110° |
| 2026-04-25 23:16 | 44.24112 | 27.00232 | 36960 ft | 522 kts | 111° |
| 2026-04-25 23:17 | 44.21401 | 27.09593 | 36963 ft | 521 kts | 111° |
| 2026-04-25 23:17 | 44.18679 | 27.18957 | 36966 ft | 520 kts | 111° |
| 2026-04-25 23:18 | 44.15973 | 27.28231 | 36968 ft | 520 kts | 111° |
| 2026-04-25 23:18 | 44.13237 | 27.37575 | 36968 ft | 520 kts | 111° |
| 2026-04-25 23:19 | 44.10498 | 27.46890 | 36971 ft | 518 kts | 111° |
| 2026-04-25 23:19 | 44.07783 | 27.56093 | 36971 ft | 517 kts | 111° |
| 2026-04-25 23:20 | 44.05039 | 27.65361 | 36970 ft | 517 kts | 111° |
| 2026-04-25 23:20 | 44.02287 | 27.74622 | 36970 ft | 516 kts | 111° |
| 2026-04-25 23:21 | 43.99549 | 27.83801 | 36971 ft | 515 kts | 111° |
| 2026-04-25 23:21 | 43.96793 | 27.93007 | 36974 ft | 515 kts | 111° |
| 2026-04-25 23:22 | 43.94045 | 28.02157 | 36973 ft | 514 kts | 111° |
| 2026-04-25 23:23 | 43.89912 | 28.15852 | 36973 ft | 512 kts | 112° |
| 2026-04-25 23:23 | 43.87150 | 28.24963 | 36971 ft | 512 kts | 112° |
| 2026-04-25 23:24 | 43.84388 | 28.34045 | 36974 ft | 512 kts | 112° |
| 2026-04-25 23:24 | 43.81616 | 28.43125 | 36977 ft | 510 kts | 112° |
| 2026-04-25 23:25 | 43.78861 | 28.52117 | 36979 ft | 510 kts | 112° |
| 2026-04-25 23:25 | 43.76070 | 28.61199 | 36981 ft | 510 kts | 112° |
| 2026-04-25 23:26 | 43.73303 | 28.70168 | 36990 ft | 509 kts | 112° |
| 2026-04-25 23:26 | 43.70443 | 28.79135 | 36989 ft | 510 kts | 117° |
| 2026-04-25 23:27 | 43.66650 | 28.87374 | 36994 ft | 510 kts | 124° |
| 2026-04-25 23:27 | 43.62493 | 28.95361 | 36993 ft | 510 kts | 126° |
| 2026-04-25 23:28 | 43.58303 | 29.03239 | 36992 ft | 510 kts | 126° |
| 2026-04-25 23:28 | 43.54104 | 29.11158 | 36993 ft | 510 kts | 126° |
| 2026-04-25 23:29 | 43.49947 | 29.19026 | 37000 ft | 510 kts | 126° |
| 2026-04-25 23:29 | 43.45782 | 29.26901 | 36998 ft | 508 kts | 126° |
| 2026-04-25 23:30 | 43.41631 | 29.34732 | 37008 ft | 508 kts | 126° |
| 2026-04-25 23:30 | 43.37433 | 29.42626 | 37008 ft | 508 kts | 126° |
| 2026-04-25 23:31 | 43.33264 | 29.50445 | 37008 ft | 507 kts | 126° |
| 2026-04-25 23:31 | 43.29103 | 29.58228 | 37009 ft | 507 kts | 126° |
| 2026-04-25 23:32 | 43.24929 | 29.66014 | 37012 ft | 507 kts | 126° |
| 2026-04-25 23:32 | 43.20744 | 29.73799 | 37012 ft | 507 kts | 126° |
| 2026-04-25 23:33 | 43.16544 | 29.81594 | 37012 ft | 507 kts | 126° |
| 2026-04-25 23:33 | 43.12363 | 29.89331 | 37012 ft | 507 kts | 126° |
| 2026-04-25 23:34 | 43.08163 | 29.97084 | 37015 ft | 506 kts | 126° |
| 2026-04-25 23:34 | 43.03969 | 30.04805 | 37007 ft | 505 kts | 126° |
| 2026-04-25 23:35 | 42.99781 | 30.12496 | 37010 ft | 504 kts | 126° |
| 2026-04-25 23:35 | 42.95601 | 30.20151 | 37010 ft | 504 kts | 126° |
| 2026-04-25 23:36 | 42.91393 | 30.27839 | 37010 ft | 504 kts | 126° |
| 2026-04-25 23:36 | 42.87197 | 30.35486 | 37009 ft | 504 kts | 126° |
| 2026-04-25 23:37 | 42.82987 | 30.43136 | 37008 ft | 504 kts | 126° |
| 2026-04-25 23:37 | 42.78784 | 30.50756 | 37009 ft | 504 kts | 127° |
| 2026-04-25 23:38 | 42.74775 | 30.58567 | 37007 ft | 503 kts | 118° |
| 2026-04-25 23:38 | 42.72180 | 30.67307 | 37007 ft | 502 kts | 107° |
| 2026-04-25 23:39 | 42.70469 | 30.74915 | 37009 ft | 502 kts | 105° |
| 2026-04-25 23:39 | 42.68535 | 30.84006 | 37007 ft | 502 kts | 105° |
| 2026-04-25 23:40 | 42.66581 | 30.93098 | 37007 ft | 502 kts | 105° |
| 2026-04-25 23:40 | 42.64584 | 31.02214 | 37007 ft | 502 kts | 106° |
| 2026-04-25 23:41 | 42.62579 | 31.11277 | 37004 ft | 501 kts | 106° |
| 2026-04-25 23:41 | 42.60574 | 31.20293 | 37004 ft | 501 kts | 106° |
| 2026-04-25 23:42 | 42.58546 | 31.29383 | 37004 ft | 501 kts | 106° |
| 2026-04-25 23:42 | 42.56521 | 31.38427 | 37005 ft | 501 kts | 106° |
| 2026-04-25 23:43 | 42.54494 | 31.47440 | 37004 ft | 500 kts | 106° |
| 2026-04-25 23:43 | 42.52454 | 31.56473 | 37001 ft | 500 kts | 106° |
| 2026-04-25 23:44 | 42.50412 | 31.65477 | 37001 ft | 500 kts | 106° |
| 2026-04-25 23:44 | 42.48361 | 31.74487 | 37001 ft | 500 kts | 106° |
| 2026-04-25 23:45 | 42.46305 | 31.83479 | 37002 ft | 499 kts | 106° |
| 2026-04-25 23:45 | 42.44245 | 31.92451 | 37001 ft | 499 kts | 107° |
| 2026-04-25 23:46 | 42.42191 | 32.01366 | 36998 ft | 499 kts | 107° |
| 2026-04-25 23:46 | 42.40113 | 32.10346 | 36998 ft | 499 kts | 107° |
| 2026-04-25 23:47 | 42.38035 | 32.19289 | 36998 ft | 498 kts | 107° |
| 2026-04-25 23:47 | 42.35953 | 32.28214 | 36996 ft | 498 kts | 107° |
| 2026-04-25 23:48 | 42.33852 | 32.37185 | 36995 ft | 498 kts | 107° |
| 2026-04-25 23:48 | 42.31769 | 32.46044 | 36993 ft | 497 kts | 107° |
| 2026-04-25 23:49 | 42.29650 | 32.55018 | 36995 ft | 499 kts | 107° |
| 2026-04-25 23:49 | 42.27549 | 32.63885 | 36993 ft | 499 kts | 107° |
| 2026-04-25 23:50 | 42.25430 | 32.72790 | 36995 ft | 499 kts | 107° |
| 2026-04-25 23:50 | 42.23300 | 32.81708 | 36993 ft | 499 kts | 107° |
| 2026-04-25 23:51 | 42.21165 | 32.90609 | 36992 ft | 499 kts | 107° |
| 2026-04-25 23:51 | 42.19016 | 32.99538 | 36993 ft | 499 kts | 107° |
| 2026-04-25 23:52 | 42.16865 | 33.08437 | 36994 ft | 498 kts | 107° |
| 2026-04-25 23:52 | 42.14722 | 33.17270 | 36993 ft | 498 kts | 108° |
| 2026-04-25 23:53 | 42.12562 | 33.26140 | 36993 ft | 498 kts | 108° |
| 2026-04-25 23:53 | 42.10405 | 33.34963 | 36996 ft | 498 kts | 108° |
| 2026-04-25 23:54 | 42.08219 | 33.43869 | 36994 ft | 497 kts | 108° |
| 2026-04-25 23:54 | 42.06056 | 33.52650 | 37004 ft | 497 kts | 108° |
| 2026-04-25 23:55 | 42.03865 | 33.61508 | 37011 ft | 497 kts | 108° |
| 2026-04-25 23:55 | 42.01676 | 33.70326 | 37009 ft | 497 kts | 108° |
| 2026-04-25 23:56 | 41.99475 | 33.79162 | 37011 ft | 497 kts | 108° |
| 2026-04-25 23:56 | 41.97279 | 33.87941 | 37019 ft | 497 kts | 108° |
| 2026-04-25 23:57 | 41.95058 | 33.96788 | 37020 ft | 499 kts | 109° |
| 2026-04-25 23:57 | 41.92837 | 34.05601 | 37009 ft | 500 kts | 109° |
| 2026-04-25 23:58 | 41.90612 | 34.14399 | 37009 ft | 499 kts | 109° |
| 2026-04-25 23:58 | 41.88376 | 34.23208 | 37015 ft | 499 kts | 109° |
| 2026-04-25 23:59 | 41.86124 | 34.32046 | 37017 ft | 499 kts | 109° |
| 2026-04-25 23:59 | 41.83869 | 34.40863 | 37018 ft | 499 kts | 109° |
| 2026-04-26 00:00 | 41.81624 | 34.49609 | 37014 ft | 498 kts | 109° |
| 2026-04-26 00:00 | 41.79364 | 34.58382 | 37021 ft | 499 kts | 109° |
| 2026-04-26 00:01 | 41.77088 | 34.67184 | 37022 ft | 499 kts | 109° |
| 2026-04-26 00:01 | 41.74808 | 34.75970 | 37023 ft | 499 kts | 109° |
| 2026-04-26 00:02 | 41.72529 | 34.84718 | 37022 ft | 499 kts | 110° |
| 2026-04-26 00:02 | 41.70236 | 34.93492 | 37024 ft | 499 kts | 110° |
| 2026-04-26 00:03 | 41.67935 | 35.02258 | 37015 ft | 500 kts | 110° |
| 2026-04-26 00:03 | 41.65629 | 35.11016 | 37014 ft | 500 kts | 110° |
| 2026-04-26 00:04 | 41.63314 | 35.19777 | 37012 ft | 501 kts | 110° |
| 2026-04-26 00:04 | 41.60991 | 35.28536 | 37012 ft | 501 kts | 110° |
| 2026-04-26 00:05 | 41.58661 | 35.37291 | 37008 ft | 501 kts | 110° |
| 2026-04-26 00:05 | 41.56317 | 35.46065 | 37005 ft | 501 kts | 111° |
| 2026-04-26 00:06 | 41.53968 | 35.54830 | 37004 ft | 501 kts | 111° |
| 2026-04-26 00:06 | 41.51620 | 35.63556 | 37004 ft | 501 kts | 111° |
| 2026-04-26 00:07 | 41.49263 | 35.72288 | 37007 ft | 501 kts | 111° |
| 2026-04-26 00:07 | 41.46893 | 35.81036 | 37013 ft | 501 kts | 111° |
| 2026-04-26 00:08 | 41.44506 | 35.89814 | 37012 ft | 501 kts | 111° |
| 2026-04-26 00:08 | 41.42130 | 35.98523 | 37011 ft | 501 kts | 111° |
| 2026-04-26 00:09 | 41.39734 | 36.07273 | 37014 ft | 502 kts | 111° |
| 2026-04-26 00:09 | 41.37335 | 36.16003 | 37018 ft | 502 kts | 111° |
| 2026-04-26 00:10 | 41.34931 | 36.24720 | 37018 ft | 502 kts | 111° |
| 2026-04-26 00:10 | 41.32532 | 36.33397 | 37019 ft | 502 kts | 112° |
| 2026-04-26 00:11 | 41.30102 | 36.42146 | 37025 ft | 504 kts | 112° |
| 2026-04-26 00:11 | 41.27901 | 36.50989 | 37029 ft | 506 kts | 103° |
| 2026-04-26 00:12 | 41.27470 | 36.60300 | 37020 ft | 508 kts | 84° |
| 2026-04-26 00:12 | 41.28604 | 36.69565 | 37021 ft | 510 kts | 79° |
| 2026-04-26 00:13 | 41.30020 | 36.78849 | 37024 ft | 511 kts | 79° |
| 2026-04-26 00:13 | 41.31430 | 36.88079 | 37024 ft | 511 kts | 79° |
| 2026-04-26 00:14 | 41.32797 | 36.97330 | 37025 ft | 511 kts | 79° |
| 2026-04-26 00:14 | 41.34145 | 37.06652 | 37026 ft | 511 kts | 79° |
| 2026-04-26 00:15 | 41.35473 | 37.15920 | 37030 ft | 510 kts | 79° |
| 2026-04-26 00:15 | 41.36799 | 37.25215 | 37033 ft | 512 kts | 80° |
| 2026-04-26 00:16 | 41.38116 | 37.34499 | 37032 ft | 512 kts | 80° |
| 2026-04-26 00:16 | 41.39427 | 37.43797 | 37031 ft | 512 kts | 80° |
| 2026-04-26 00:17 | 41.40741 | 37.53169 | 37035 ft | 512 kts | 80° |
| 2026-04-26 00:17 | 41.42037 | 37.62466 | 37037 ft | 512 kts | 80° |
| 2026-04-26 00:18 | 41.43331 | 37.71812 | 37036 ft | 512 kts | 80° |
| 2026-04-26 00:18 | 41.44612 | 37.81119 | 37037 ft | 514 kts | 80° |
| 2026-04-26 00:19 | 41.45897 | 37.90522 | 37049 ft | 514 kts | 80° |
| 2026-04-26 00:19 | 41.47165 | 37.99853 | 37039 ft | 514 kts | 80° |
| 2026-04-26 00:20 | 41.48435 | 38.09261 | 37038 ft | 514 kts | 80° |
| 2026-04-26 00:20 | 41.49694 | 38.18646 | 37039 ft | 514 kts | 81° |
| 2026-04-26 00:21 | 41.50939 | 38.27985 | 37041 ft | 514 kts | 81° |
| 2026-04-26 00:21 | 41.52191 | 38.37445 | 37039 ft | 516 kts | 81° |
| 2026-04-26 00:22 | 41.53426 | 38.46834 | 37040 ft | 516 kts | 81° |
| 2026-04-26 00:22 | 41.54664 | 38.56302 | 37039 ft | 516 kts | 81° |
| 2026-04-26 00:23 | 41.55887 | 38.65723 | 37045 ft | 516 kts | 81° |
| 2026-04-26 00:23 | 41.57100 | 38.75133 | 37046 ft | 516 kts | 81° |
| 2026-04-26 00:24 | 41.58316 | 38.84628 | 37038 ft | 516 kts | 81° |
| 2026-04-26 00:24 | 41.59520 | 38.94090 | 37051 ft | 519 kts | 81° |
| 2026-04-26 00:25 | 41.60721 | 39.03597 | 37052 ft | 519 kts | 81° |
| 2026-04-26 00:25 | 41.61915 | 39.13113 | 37050 ft | 519 kts | 81° |
| 2026-04-26 00:26 | 41.63098 | 39.22606 | 37057 ft | 519 kts | 81° |
| 2026-04-26 00:26 | 41.64078 | 39.30526 | 37050 ft | 519 kts | 81° |
| 2026-04-26 00:27 | 41.65247 | 39.40030 | 37046 ft | 519 kts | 81° |
| 2026-04-26 00:27 | 41.66421 | 39.49647 | 37053 ft | 522 kts | 82° |
| 2026-04-26 00:28 | 41.67575 | 39.59164 | 37051 ft | 522 kts | 82° |
| 2026-04-26 00:28 | 41.68732 | 39.68768 | 37051 ft | 522 kts | 82° |
| 2026-04-26 00:29 | 41.69880 | 39.78373 | 37047 ft | 522 kts | 82° |
| 2026-04-26 00:29 | 41.71016 | 39.87954 | 37049 ft | 522 kts | 82° |
| 2026-04-26 00:30 | 41.72152 | 39.97596 | 37062 ft | 523 kts | 82° |
| 2026-04-26 00:30 | 41.73276 | 40.07220 | 37061 ft | 524 kts | 82° |
| 2026-04-26 00:31 | 41.74388 | 40.16797 | 37062 ft | 524 kts | 82° |
| 2026-04-26 00:31 | 41.75505 | 40.26499 | 37061 ft | 524 kts | 82° |
| 2026-04-26 00:32 | 41.76608 | 40.36155 | 37072 ft | 524 kts | 82° |
| 2026-04-26 00:32 | 41.78244 | 40.50609 | 37064 ft | 524 kts | 82° |
| 2026-04-26 00:33 | 41.79325 | 40.60251 | 37059 ft | 524 kts | 82° |
| 2026-04-26 00:33 | 41.79677 | 40.69989 | 37059 ft | 522 kts | 94° |
| 2026-04-26 00:34 | 41.79303 | 40.79663 | 37061 ft | 522 kts | 95° |
| 2026-04-26 00:34 | 41.78797 | 40.89366 | 37061 ft | 521 kts | 96° |
| 2026-04-26 00:35 | 41.78284 | 40.99022 | 37055 ft | 522 kts | 96° |
| 2026-04-26 00:35 | 41.77776 | 41.08743 | 37056 ft | 524 kts | 96° |
| 2026-04-26 00:36 | 41.77267 | 41.18531 | 37050 ft | 524 kts | 96° |
| 2026-04-26 00:36 | 41.76754 | 41.28255 | 37046 ft | 524 kts | 96° |
| 2026-04-26 00:37 | 41.76235 | 41.37921 | 37039 ft | 524 kts | 96° |
| 2026-04-26 00:37 | 41.75700 | 41.47714 | 37045 ft | 526 kts | 96° |
| 2026-04-26 00:38 | 41.75159 | 41.57469 | 37046 ft | 526 kts | 96° |
| 2026-04-26 00:38 | 41.74609 | 41.67255 | 37046 ft | 526 kts | 96° |
| 2026-04-26 00:39 | 41.74049 | 41.77052 | 37045 ft | 527 kts | 96° |
| 2026-04-26 00:39 | 41.73481 | 41.86844 | 37048 ft | 528 kts | 96° |
| 2026-04-26 00:40 | 41.72904 | 41.96611 | 37060 ft | 529 kts | 96° |
| 2026-04-26 00:40 | 41.72320 | 42.06391 | 37061 ft | 529 kts | 96° |
| 2026-04-26 00:41 | 41.71723 | 42.16247 | 37079 ft | 529 kts | 96° |
| 2026-04-26 00:41 | 41.71122 | 42.26027 | 37080 ft | 529 kts | 97° |
| 2026-04-26 00:42 | 41.70508 | 42.35889 | 37095 ft | 530 kts | 97° |
| 2026-04-26 00:42 | 41.69890 | 42.45661 | 37107 ft | 529 kts | 97° |
| 2026-04-26 00:43 | 41.69259 | 42.55509 | 37105 ft | 530 kts | 97° |
| 2026-04-26 00:43 | 41.68622 | 42.65312 | 37134 ft | 531 kts | 97° |
| 2026-04-26 00:44 | 41.67974 | 42.75164 | 37135 ft | 531 kts | 97° |
| 2026-04-26 00:44 | 41.67318 | 42.85005 | 37157 ft | 531 kts | 97° |
| 2026-04-26 00:45 | 41.66369 | 42.94735 | 37172 ft | 530 kts | 103° |
| 2026-04-26 00:45 | 41.64970 | 43.04404 | 37165 ft | 529 kts | 104° |
| 2026-04-26 00:46 | 41.63573 | 43.14031 | 37174 ft | 529 kts | 103° |
| 2026-04-26 00:46 | 41.62235 | 43.23744 | 37184 ft | 529 kts | 103° |
| 2026-04-26 00:47 | 41.60928 | 43.33435 | 37168 ft | 530 kts | 103° |
| 2026-04-26 00:47 | 41.59623 | 43.43091 | 37169 ft | 530 kts | 103° |
| 2026-04-26 00:48 | 41.58304 | 43.52774 | 37170 ft | 530 kts | 103° |
| 2026-04-26 00:48 | 41.56980 | 43.62412 | 37172 ft | 530 kts | 103° |
| 2026-04-26 00:49 | 41.55634 | 43.72142 | 37183 ft | 529 kts | 103° |
| 2026-04-26 00:49 | 41.54291 | 43.81778 | 37205 ft | 530 kts | 103° |
| 2026-04-26 00:50 | 41.52940 | 43.91418 | 37206 ft | 531 kts | 103° |
| 2026-04-26 00:50 | 41.51569 | 44.01135 | 37231 ft | 532 kts | 103° |
| 2026-04-26 00:51 | 41.50192 | 44.10832 | 37233 ft | 532 kts | 104° |
| 2026-04-26 00:51 | 41.48815 | 44.20471 | 37248 ft | 531 kts | 104° |
| 2026-04-26 00:52 | 41.47422 | 44.30166 | 37259 ft | 532 kts | 104° |
| 2026-04-26 00:52 | 41.46026 | 44.39815 | 37256 ft | 532 kts | 104° |
| 2026-04-26 00:53 | 41.44610 | 44.49546 | 37256 ft | 532 kts | 104° |
| 2026-04-26 00:53 | 41.43198 | 44.59184 | 37272 ft | 532 kts | 104° |
| 2026-04-26 00:54 | 41.41775 | 44.68834 | 37252 ft | 531 kts | 104° |
| 2026-04-26 00:54 | 41.40341 | 44.78510 | 37245 ft | 531 kts | 104° |
| 2026-04-26 00:55 | 41.38900 | 44.88166 | 37240 ft | 532 kts | 104° |
| 2026-04-26 00:55 | 41.37446 | 44.97853 | 37239 ft | 533 kts | 104° |
| 2026-04-26 00:56 | 41.35924 | 45.07498 | 37243 ft | 531 kts | 109° |
| 2026-04-26 00:56 | 41.33707 | 45.16879 | 37243 ft | 529 kts | 112° |
| 2026-04-26 00:57 | 41.31347 | 45.26104 | 37241 ft | 531 kts | 113° |
| 2026-04-26 00:57 | 41.28930 | 45.35401 | 37243 ft | 531 kts | 113° |
| 2026-04-26 00:58 | 41.26517 | 45.44687 | 37241 ft | 531 kts | 112° |
| 2026-04-26 00:58 | 41.24119 | 45.53920 | 37235 ft | 531 kts | 113° |
| 2026-04-26 00:59 | 41.21704 | 45.63193 | 37249 ft | 532 kts | 113° |
| 2026-04-26 00:59 | 41.19278 | 45.72479 | 37249 ft | 532 kts | 113° |
| 2026-04-26 01:00 | 41.16837 | 45.81731 | 37243 ft | 532 kts | 113° |
| 2026-04-26 01:00 | 41.14371 | 45.91034 | 37266 ft | 533 kts | 113° |
| 2026-04-26 01:01 | 41.11923 | 46.00248 | 37262 ft | 533 kts | 113° |
| 2026-04-26 01:01 | 41.09435 | 46.09581 | 37263 ft | 533 kts | 113° |
| 2026-04-26 01:02 | 41.06957 | 46.18847 | 37276 ft | 534 kts | 113° |
| 2026-04-26 01:02 | 41.04478 | 46.28080 | 37277 ft | 534 kts | 113° |
| 2026-04-26 01:03 | 41.01996 | 46.37354 | 37280 ft | 534 kts | 113° |
| 2026-04-26 01:03 | 40.99520 | 46.46620 | 37268 ft | 534 kts | 113° |
| 2026-04-26 01:04 | 40.97038 | 46.55869 | 37285 ft | 534 kts | 113° |
| 2026-04-26 01:04 | 40.94547 | 46.65112 | 37282 ft | 534 kts | 113° |
| 2026-04-26 01:05 | 40.92051 | 46.74340 | 37254 ft | 534 kts | 113° |
| 2026-04-26 01:05 | 40.89535 | 46.83604 | 37274 ft | 535 kts | 113° |
| 2026-04-26 01:06 | 40.86997 | 46.92902 | 37282 ft | 535 kts | 114° |
| 2026-04-26 01:06 | 40.84459 | 47.02126 | 37280 ft | 535 kts | 114° |
| 2026-04-26 01:07 | 40.81919 | 47.11323 | 37274 ft | 536 kts | 114° |
| 2026-04-26 01:07 | 40.79360 | 47.20572 | 37275 ft | 536 kts | 114° |
| 2026-04-26 01:08 | 40.76766 | 47.29846 | 37285 ft | 536 kts | 114° |
| 2026-04-26 01:08 | 40.74190 | 47.39007 | 37276 ft | 536 kts | 114° |
| 2026-04-26 01:09 | 40.71591 | 47.48261 | 37285 ft | 536 kts | 114° |
| 2026-04-26 01:09 | 40.69010 | 47.57428 | 37292 ft | 536 kts | 114° |
| 2026-04-26 01:10 | 40.66410 | 47.66629 | 37288 ft | 536 kts | 114° |
| 2026-04-26 01:10 | 40.63798 | 47.75839 | 37290 ft | 536 kts | 114° |
| 2026-04-26 01:11 | 40.61180 | 47.85040 | 37287 ft | 536 kts | 114° |
| 2026-04-26 01:11 | 40.59087 | 47.92775 | 37287 ft | 539 kts | 108° |
| 2026-04-26 01:12 | 40.57965 | 48.02569 | 37289 ft | 544 kts | 97° |
| 2026-04-26 01:12 | 40.57404 | 48.14109 | 37288 ft | 545 kts | 95° |
| 2026-04-26 01:13 | 40.57070 | 48.22429 | 37285 ft | 544 kts | 95° |
| 2026-04-26 01:13 | 40.56570 | 48.33966 | 37290 ft | 544 kts | 95° |
| 2026-04-26 01:14 | 40.56183 | 48.42242 | 37280 ft | 544 kts | 95° |
| 2026-04-26 01:14 | 40.55699 | 48.52250 | 37284 ft | 545 kts | 95° |
| 2026-04-26 01:15 | 40.55211 | 48.62158 | 37281 ft | 545 kts | 95° |
| 2026-04-26 01:15 | 40.54716 | 48.72060 | 37288 ft | 545 kts | 95° |
| 2026-04-26 01:16 | 40.54210 | 48.82032 | 37282 ft | 545 kts | 96° |
| 2026-04-26 01:16 | 40.53696 | 48.91976 | 37277 ft | 546 kts | 96° |
| 2026-04-26 01:17 | 40.53174 | 49.01906 | 37274 ft | 546 kts | 96° |
| 2026-04-26 01:17 | 40.52642 | 49.11886 | 37281 ft | 548 kts | 96° |
| 2026-04-26 01:18 | 40.52099 | 49.21890 | 37274 ft | 548 kts | 96° |
| 2026-04-26 01:18 | 40.51548 | 49.31875 | 37272 ft | 549 kts | 96° |
| 2026-04-26 01:19 | 40.50995 | 49.41841 | 37271 ft | 549 kts | 96° |
| 2026-04-26 01:19 | 40.50425 | 49.51866 | 37269 ft | 548 kts | 96° |
| 2026-04-26 01:20 | 40.49851 | 49.61799 | 37267 ft | 549 kts | 96° |
| 2026-04-26 01:20 | 40.49263 | 49.71834 | 37240 ft | 549 kts | 96° |
| 2026-04-26 01:21 | 40.48668 | 49.81861 | 37261 ft | 548 kts | 96° |
| 2026-04-26 01:21 | 40.48071 | 49.91763 | 37265 ft | 548 kts | 97° |
| 2026-04-26 01:22 | 40.47462 | 50.01739 | 37276 ft | 548 kts | 97° |
| 2026-04-26 01:22 | 40.46393 | 50.11629 | 37267 ft | 547 kts | 102° |
| 2026-04-26 01:23 | 40.45095 | 50.21511 | 37263 ft | 546 kts | 103° |
| 2026-04-26 01:23 | 40.43768 | 50.31266 | 37263 ft | 545 kts | 103° |
| 2026-04-26 01:24 | 40.42430 | 50.41074 | 37265 ft | 545 kts | 103° |
| 2026-04-26 01:24 | 40.41094 | 50.50860 | 37265 ft | 545 kts | 103° |
| 2026-04-26 01:25 | 40.39761 | 50.60585 | 37261 ft | 543 kts | 103° |
| 2026-04-26 01:25 | 40.38413 | 50.70366 | 37268 ft | 543 kts | 103° |
| 2026-04-26 01:26 | 40.37065 | 50.80072 | 37275 ft | 542 kts | 103° |
| 2026-04-26 01:26 | 40.35706 | 50.89800 | 37277 ft | 542 kts | 103° |
| 2026-04-26 01:27 | 40.34334 | 50.99550 | 37278 ft | 541 kts | 103° |
| 2026-04-26 01:27 | 40.32961 | 51.09254 | 37275 ft | 541 kts | 103° |
| 2026-04-26 01:28 | 40.31576 | 51.18976 | 37275 ft | 541 kts | 103° |
| 2026-04-26 01:28 | 40.30188 | 51.28662 | 37251 ft | 541 kts | 103° |
| 2026-04-26 01:29 | 40.28802 | 51.38272 | 37282 ft | 540 kts | 103° |
| 2026-04-26 01:29 | 40.27402 | 51.47926 | 37279 ft | 540 kts | 103° |
| 2026-04-26 01:30 | 40.25998 | 51.57575 | 37282 ft | 540 kts | 103° |
| 2026-04-26 01:30 | 40.24570 | 51.67290 | 37282 ft | 540 kts | 103° |
| 2026-04-26 01:31 | 40.23150 | 51.76884 | 37278 ft | 539 kts | 103° |
| 2026-04-26 01:31 | 40.21719 | 51.86514 | 37280 ft | 539 kts | 103° |
| 2026-04-26 01:32 | 40.20275 | 51.96171 | 37280 ft | 539 kts | 104° |
| 2026-04-26 01:32 | 40.18833 | 52.05760 | 37269 ft | 539 kts | 103° |
| 2026-04-26 01:33 | 40.17371 | 52.15422 | 37279 ft | 539 kts | 103° |
| 2026-04-26 01:33 | 40.15913 | 52.25009 | 37276 ft | 539 kts | 104° |
| 2026-04-26 01:34 | 40.14446 | 52.34595 | 37273 ft | 539 kts | 104° |
| 2026-04-26 01:34 | 40.12972 | 52.44169 | 37268 ft | 539 kts | 104° |
| 2026-04-26 01:35 | 40.11481 | 52.53801 | 37268 ft | 538 kts | 104° |
| 2026-04-26 01:35 | 40.09992 | 52.63358 | 37268 ft | 538 kts | 104° |
| 2026-04-26 01:36 | 40.08488 | 52.72964 | 37268 ft | 538 kts | 104° |
| 2026-04-26 01:37 | 40.06225 | 52.87311 | 37264 ft | 538 kts | 104° |
| 2026-04-26 01:37 | 40.04738 | 52.96864 | 37261 ft | 538 kts | 101° |
| 2026-04-26 01:38 | 40.04574 | 53.06601 | 37265 ft | 542 kts | 86° |
| 2026-04-26 01:38 | 40.05383 | 53.16423 | 37273 ft | 543 kts | 83° |
| 2026-04-26 01:39 | 40.06342 | 53.26153 | 37264 ft | 543 kts | 83° |
| 2026-04-26 01:39 | 40.07290 | 53.35909 | 37266 ft | 543 kts | 83° |
| 2026-04-26 01:40 | 40.08203 | 53.45704 | 37264 ft | 543 kts | 84° |
| 2026-04-26 01:40 | 40.09088 | 53.55439 | 37266 ft | 542 kts | 84° |
| 2026-04-26 01:41 | 40.09968 | 53.65219 | 37269 ft | 542 kts | 84° |
| 2026-04-26 01:41 | 40.10841 | 53.75016 | 37271 ft | 542 kts | 84° |
| 2026-04-26 01:42 | 40.11706 | 53.84800 | 37275 ft | 542 kts | 84° |
| 2026-04-26 01:42 | 40.12563 | 53.94580 | 37278 ft | 543 kts | 84° |
| 2026-04-26 01:43 | 40.13414 | 54.04399 | 37260 ft | 543 kts | 84° |
| 2026-04-26 01:43 | 40.14252 | 54.14163 | 37281 ft | 542 kts | 84° |
| 2026-04-26 01:44 | 40.15085 | 54.23958 | 37286 ft | 542 kts | 84° |
| 2026-04-26 01:44 | 40.15908 | 54.33749 | 37284 ft | 542 kts | 84° |
| 2026-04-26 01:45 | 40.16721 | 54.43517 | 37287 ft | 542 kts | 84° |
| 2026-04-26 01:45 | 40.17531 | 54.53346 | 37287 ft | 542 kts | 85° |
| 2026-04-26 01:46 | 40.18327 | 54.63116 | 37285 ft | 542 kts | 85° |
| 2026-04-26 01:46 | 40.19116 | 54.72900 | 37286 ft | 542 kts | 85° |
| 2026-04-26 01:47 | 40.19900 | 54.82724 | 37291 ft | 542 kts | 85° |
| 2026-04-26 01:47 | 40.20676 | 54.92554 | 37294 ft | 542 kts | 85° |
| 2026-04-26 01:48 | 40.21437 | 55.02295 | 37288 ft | 542 kts | 85° |
| 2026-04-26 01:48 | 40.22199 | 55.12168 | 37287 ft | 542 kts | 85° |
| 2026-04-26 01:49 | 40.22943 | 55.21912 | 37290 ft | 542 kts | 85° |
| 2026-04-26 01:49 | 40.23686 | 55.31762 | 37290 ft | 542 kts | 85° |
| 2026-04-26 01:50 | 40.24419 | 55.41575 | 37289 ft | 542 kts | 85° |
| 2026-04-26 01:50 | 40.25141 | 55.51369 | 37284 ft | 541 kts | 85° |
| 2026-04-26 01:51 | 40.25854 | 55.61152 | 37288 ft | 541 kts | 85° |
| 2026-04-26 01:51 | 40.26575 | 55.70938 | 37319 ft | 541 kts | 83° |
| 2026-04-26 01:51 | 40.27304 | 55.75783 | 37514 ft | 540 kts | 73° |
| 2026-04-26 01:52 | 40.28437 | 55.80474 | 37773 ft | 538 kts | 70° |
| 2026-04-26 01:52 | 40.29660 | 55.85065 | 37966 ft | 537 kts | 69° |
| 2026-04-26 01:52 | 40.30946 | 55.89662 | 38143 ft | 536 kts | 69° |
| 2026-04-26 01:52 | 40.32253 | 55.94235 | 38309 ft | 536 kts | 68° |
| 2026-04-26 01:53 | 40.33563 | 55.98807 | 38462 ft | 536 kts | 69° |
| 2026-04-26 01:53 | 40.34861 | 56.03354 | 38607 ft | 536 kts | 69° |
| 2026-04-26 01:53 | 40.36164 | 56.07949 | 38767 ft | 536 kts | 69° |
| 2026-04-26 01:53 | 40.37459 | 56.12549 | 38911 ft | 536 kts | 69° |
| 2026-04-26 01:54 | 40.38737 | 56.17111 | 39027 ft | 536 kts | 69° |
| 2026-04-26 01:54 | 40.41310 | 56.26339 | 39232 ft | 535 kts | 69° |
| 2026-04-26 01:55 | 40.43859 | 56.35520 | 39287 ft | 539 kts | 69° |
| 2026-04-26 01:55 | 40.46418 | 56.44764 | 39287 ft | 539 kts | 69° |
| 2026-04-26 01:56 | 40.48961 | 56.53987 | 39285 ft | 539 kts | 69° |
| 2026-04-26 01:56 | 40.51509 | 56.63257 | 39285 ft | 539 kts | 69° |
| 2026-04-26 01:57 | 40.54043 | 56.72512 | 39284 ft | 539 kts | 69° |
| 2026-04-26 01:57 | 40.56580 | 56.81815 | 39284 ft | 539 kts | 69° |
| 2026-04-26 01:58 | 40.59106 | 56.91111 | 39276 ft | 539 kts | 69° |
| 2026-04-26 01:58 | 40.61609 | 57.00360 | 39274 ft | 539 kts | 70° |
| 2026-04-26 01:59 | 40.64130 | 57.09705 | 39274 ft | 539 kts | 70° |
| 2026-04-26 01:59 | 40.66215 | 57.17469 | 39269 ft | 539 kts | 70° |
| 2026-04-26 02:00 | 40.68696 | 57.26757 | 39269 ft | 539 kts | 70° |
| 2026-04-26 02:00 | 40.71173 | 57.36070 | 39271 ft | 539 kts | 70° |
| 2026-04-26 02:01 | 40.73650 | 57.45414 | 39264 ft | 540 kts | 70° |
| 2026-04-26 02:01 | 40.76125 | 57.54782 | 39259 ft | 540 kts | 70° |
| 2026-04-26 02:02 | 40.78574 | 57.64088 | 39255 ft | 540 kts | 70° |
| 2026-04-26 02:02 | 40.81165 | 57.73396 | 39247 ft | 539 kts | 68° |
| 2026-04-26 02:03 | 40.83856 | 57.82672 | 39250 ft | 539 kts | 68° |
| 2026-04-26 02:03 | 40.86514 | 57.91920 | 39245 ft | 539 kts | 68° |
| 2026-04-26 02:04 | 40.89145 | 58.01192 | 39246 ft | 539 kts | 69° |
| 2026-04-26 02:04 | 40.91745 | 58.10427 | 39245 ft | 539 kts | 69° |
| 2026-04-26 02:05 | 40.94364 | 58.19766 | 39240 ft | 539 kts | 69° |
| 2026-04-26 02:05 | 40.96956 | 58.29038 | 39240 ft | 539 kts | 69° |
| 2026-04-26 02:06 | 40.99538 | 58.38309 | 39239 ft | 539 kts | 69° |
| 2026-04-26 02:06 | 41.02139 | 58.47675 | 39240 ft | 539 kts | 69° |
| 2026-04-26 02:07 | 41.04719 | 58.57005 | 39232 ft | 539 kts | 69° |
| 2026-04-26 02:07 | 41.07270 | 58.66278 | 39226 ft | 537 kts | 70° |
| 2026-04-26 02:08 | 41.09837 | 58.75635 | 39228 ft | 537 kts | 70° |
| 2026-04-26 02:08 | 41.12370 | 58.84886 | 39226 ft | 537 kts | 70° |
| 2026-04-26 02:09 | 41.14917 | 58.94224 | 39222 ft | 537 kts | 70° |
| 2026-04-26 02:09 | 41.17452 | 59.03562 | 39223 ft | 538 kts | 70° |
| 2026-04-26 02:10 | 41.19979 | 59.12903 | 39219 ft | 538 kts | 70° |
| 2026-04-26 02:10 | 41.22492 | 59.22234 | 39219 ft | 538 kts | 70° |
| 2026-04-26 02:11 | 41.25006 | 59.31598 | 39213 ft | 538 kts | 70° |
| 2026-04-26 02:11 | 41.27505 | 59.40942 | 39218 ft | 538 kts | 70° |
| 2026-04-26 02:12 | 41.29997 | 59.50299 | 39205 ft | 539 kts | 70° |
| 2026-04-26 02:12 | 41.32505 | 59.59749 | 39199 ft | 539 kts | 70° |
| 2026-04-26 02:13 | 41.34985 | 59.69145 | 39198 ft | 539 kts | 71° |
| 2026-04-26 02:13 | 41.37321 | 59.78606 | 39201 ft | 539 kts | 72° |
| 2026-04-26 02:14 | 41.39597 | 59.88138 | 39198 ft | 540 kts | 72° |
| 2026-04-26 02:14 | 41.41877 | 59.97653 | 39193 ft | 540 kts | 72° |
| 2026-04-26 02:15 | 41.44177 | 60.07209 | 39191 ft | 540 kts | 72° |
| 2026-04-26 02:15 | 41.46466 | 60.16737 | 39193 ft | 541 kts | 72° |
| 2026-04-26 02:16 | 41.48744 | 60.26265 | 39195 ft | 541 kts | 72° |
| 2026-04-26 02:16 | 41.50994 | 60.35844 | 39188 ft | 541 kts | 72° |
| 2026-04-26 02:17 | 41.53238 | 60.45457 | 39182 ft | 542 kts | 73° |
| 2026-04-26 02:17 | 41.55467 | 60.55023 | 39182 ft | 542 kts | 73° |
| 2026-04-26 02:18 | 41.57698 | 60.64622 | 39179 ft | 542 kts | 73° |
| 2026-04-26 02:18 | 41.60069 | 60.74201 | 39178 ft | 542 kts | 70° |
| 2026-04-26 02:19 | 41.62607 | 60.83639 | 39174 ft | 542 kts | 70° |
| 2026-04-26 02:19 | 41.65144 | 60.93124 | 39170 ft | 542 kts | 70° |
| 2026-04-26 02:20 | 41.67643 | 61.02647 | 39173 ft | 542 kts | 71° |
| 2026-04-26 02:20 | 41.70121 | 61.12190 | 39164 ft | 543 kts | 71° |
| 2026-04-26 02:21 | 41.72588 | 61.21743 | 39163 ft | 542 kts | 71° |
| 2026-04-26 02:21 | 41.75039 | 61.31266 | 39159 ft | 542 kts | 71° |
| 2026-04-26 02:22 | 41.77494 | 61.40838 | 39162 ft | 542 kts | 71° |
| 2026-04-26 02:22 | 41.79931 | 61.50375 | 39162 ft | 542 kts | 71° |
| 2026-04-26 02:23 | 41.82362 | 61.59925 | 39157 ft | 543 kts | 71° |
| 2026-04-26 02:23 | 41.84787 | 61.69494 | 39151 ft | 543 kts | 71° |
| 2026-04-26 02:24 | 41.87209 | 61.79080 | 39149 ft | 543 kts | 71° |
| 2026-04-26 02:24 | 41.89629 | 61.88730 | 39145 ft | 542 kts | 72° |
| 2026-04-26 02:25 | 41.92004 | 61.98263 | 39144 ft | 542 kts | 72° |
| 2026-04-26 02:25 | 41.94403 | 62.07922 | 39143 ft | 542 kts | 72° |
| 2026-04-26 02:26 | 41.96780 | 62.17524 | 39138 ft | 541 kts | 72° |
| 2026-04-26 02:26 | 41.99146 | 62.27084 | 39135 ft | 541 kts | 72° |
| 2026-04-26 02:27 | 42.01519 | 62.36717 | 39136 ft | 541 kts | 72° |
| 2026-04-26 02:27 | 42.03871 | 62.46305 | 39131 ft | 541 kts | 72° |
| 2026-04-26 02:28 | 42.06206 | 62.55870 | 39128 ft | 540 kts | 72° |
| 2026-04-26 02:28 | 42.08543 | 62.65490 | 39127 ft | 540 kts | 72° |
| 2026-04-26 02:29 | 42.10862 | 62.75081 | 39114 ft | 540 kts | 72° |
| 2026-04-26 02:29 | 42.13182 | 62.84697 | 39124 ft | 539 kts | 72° |
| 2026-04-26 02:30 | 42.15495 | 62.94326 | 39120 ft | 539 kts | 72° |
| 2026-04-26 02:30 | 42.17803 | 63.03959 | 39115 ft | 539 kts | 72° |
| 2026-04-26 02:31 | 42.20089 | 63.13532 | 39108 ft | 539 kts | 73° |
| 2026-04-26 02:31 | 42.22382 | 63.23189 | 39109 ft | 539 kts | 73° |
| 2026-04-26 02:32 | 42.24666 | 63.32844 | 39099 ft | 539 kts | 73° |
| 2026-04-26 02:32 | 42.26923 | 63.42425 | 39093 ft | 539 kts | 73° |
| 2026-04-26 02:33 | 42.29190 | 63.52086 | 39090 ft | 540 kts | 73° |
| 2026-04-26 02:33 | 42.31460 | 63.61801 | 39083 ft | 540 kts | 73° |
| 2026-04-26 02:34 | 42.33697 | 63.71418 | 39075 ft | 540 kts | 73° |
| 2026-04-26 02:34 | 42.35959 | 63.81185 | 39073 ft | 540 kts | 73° |
| 2026-04-26 02:35 | 42.38184 | 63.90835 | 39066 ft | 540 kts | 73° |
| 2026-04-26 02:35 | 42.40408 | 64.00519 | 39055 ft | 540 kts | 73° |
| 2026-04-26 02:36 | 42.42612 | 64.10244 | 39056 ft | 541 kts | 74° |
| 2026-04-26 02:36 | 42.44788 | 64.19982 | 39063 ft | 540 kts | 74° |
| 2026-04-26 02:37 | 42.46974 | 64.29739 | 39045 ft | 540 kts | 74° |
| 2026-04-26 02:37 | 42.49159 | 64.39459 | 39053 ft | 540 kts | 74° |
| 2026-04-26 02:38 | 42.51347 | 64.49230 | 39035 ft | 540 kts | 74° |
| 2026-04-26 02:38 | 42.53513 | 64.58946 | 39036 ft | 540 kts | 74° |
| 2026-04-26 02:39 | 42.55672 | 64.68683 | 39046 ft | 541 kts | 74° |
| 2026-04-26 02:39 | 42.57835 | 64.78484 | 39036 ft | 542 kts | 74° |
| 2026-04-26 02:40 | 42.59986 | 64.88275 | 39023 ft | 542 kts | 74° |
| 2026-04-26 02:40 | 42.62132 | 64.98086 | 39016 ft | 542 kts | 74° |
| 2026-04-26 02:41 | 42.64271 | 65.07910 | 39010 ft | 543 kts | 74° |
| 2026-04-26 02:41 | 42.66401 | 65.17737 | 39016 ft | 543 kts | 74° |
| 2026-04-26 02:42 | 42.68521 | 65.27564 | 39018 ft | 543 kts | 74° |
| 2026-04-26 02:42 | 42.70639 | 65.37434 | 39001 ft | 543 kts | 74° |
| 2026-04-26 02:43 | 42.73797 | 65.52224 | 38991 ft | 544 kts | 74° |
| 2026-04-26 02:43 | 42.75897 | 65.62122 | 38984 ft | 544 kts | 74° |
| 2026-04-26 02:44 | 42.77987 | 65.72019 | 38978 ft | 544 kts | 74° |
| 2026-04-26 02:44 | 42.80073 | 65.81940 | 38971 ft | 544 kts | 75° |
| 2026-04-26 02:45 | 42.82131 | 65.91775 | 38969 ft | 544 kts | 75° |
| 2026-04-26 02:45 | 42.84201 | 66.01725 | 38968 ft | 545 kts | 75° |
| 2026-04-26 02:46 | 42.86261 | 66.11665 | 38963 ft | 545 kts | 75° |
| 2026-04-26 02:46 | 42.88291 | 66.21547 | 38963 ft | 544 kts | 75° |
| 2026-04-26 02:47 | 42.90330 | 66.31548 | 38958 ft | 545 kts | 75° |
| 2026-04-26 02:47 | 42.92349 | 66.41494 | 38960 ft | 546 kts | 75° |
| 2026-04-26 02:48 | 42.94030 | 66.49805 | 38958 ft | 546 kts | 75° |
| 2026-04-26 02:48 | 42.96037 | 66.59769 | 38956 ft | 546 kts | 75° |
| 2026-04-26 02:49 | 42.98046 | 66.69800 | 38958 ft | 547 kts | 75° |
| 2026-04-26 02:49 | 43.00048 | 66.79834 | 38955 ft | 547 kts | 75° |
| 2026-04-26 02:50 | 43.02042 | 66.89872 | 38957 ft | 547 kts | 75° |
| 2026-04-26 02:50 | 43.04007 | 66.99849 | 38953 ft | 547 kts | 75° |
| 2026-04-26 02:51 | 43.05979 | 67.09907 | 38952 ft | 547 kts | 75° |
| 2026-04-26 02:51 | 43.07933 | 67.19920 | 38951 ft | 547 kts | 75° |
| 2026-04-26 02:52 | 43.09895 | 67.30020 | 38953 ft | 546 kts | 75° |
| 2026-04-26 02:52 | 43.11834 | 67.40051 | 38960 ft | 546 kts | 75° |
| 2026-04-26 02:53 | 43.13764 | 67.50072 | 38963 ft | 546 kts | 75° |
| 2026-04-26 02:53 | 43.15693 | 67.60144 | 38968 ft | 546 kts | 75° |
| 2026-04-26 02:54 | 43.17605 | 67.70188 | 38974 ft | 546 kts | 75° |
| 2026-04-26 02:54 | 43.19507 | 67.80225 | 38974 ft | 546 kts | 75° |
| 2026-04-26 02:55 | 43.21410 | 67.90315 | 38974 ft | 546 kts | 75° |
| 2026-04-26 02:55 | 43.23298 | 68.00396 | 38980 ft | 545 kts | 75° |
| 2026-04-26 02:56 | 43.25171 | 68.10454 | 38979 ft | 545 kts | 76° |
| 2026-04-26 02:56 | 43.27032 | 68.20489 | 38990 ft | 545 kts | 76° |
| 2026-04-26 02:57 | 43.28890 | 68.30568 | 38990 ft | 544 kts | 76° |
| 2026-04-26 02:57 | 43.30691 | 68.40661 | 39004 ft | 543 kts | 78° |
| 2026-04-26 02:58 | 43.31940 | 68.50845 | 38989 ft | 542 kts | 82° |
| 2026-04-26 02:58 | 43.33850 | 68.60819 | 38994 ft | 540 kts | 65° |
| 2026-04-26 02:59 | 43.37026 | 68.70163 | 39018 ft | 538 kts | 61° |
| 2026-04-26 02:59 | 43.40429 | 68.79278 | 39013 ft | 537 kts | 60° |
| 2026-04-26 03:00 | 43.43856 | 68.88388 | 39013 ft | 537 kts | 61° |
| 2026-04-26 03:00 | 43.47268 | 68.97577 | 39009 ft | 537 kts | 61° |
| 2026-04-26 03:01 | 43.50646 | 69.06763 | 39007 ft | 537 kts | 61° |
| 2026-04-26 03:01 | 43.54009 | 69.15946 | 39000 ft | 536 kts | 61° |
| 2026-04-26 03:02 | 43.57362 | 69.25137 | 39000 ft | 538 kts | 61° |
| 2026-04-26 03:02 | 43.60735 | 69.34409 | 38992 ft | 542 kts | 61° |
| 2026-04-26 03:03 | 43.64106 | 69.43735 | 38985 ft | 543 kts | 63° |
| 2026-04-26 03:03 | 43.67132 | 69.53252 | 38988 ft | 544 kts | 66° |
| 2026-04-26 03:04 | 43.69998 | 69.62888 | 38979 ft | 544 kts | 66° |
| 2026-04-26 03:04 | 43.72928 | 69.72611 | 38969 ft | 544 kts | 65° |
| 2026-04-26 03:05 | 43.75865 | 69.82225 | 38970 ft | 544 kts | 65° |
| 2026-04-26 03:05 | 43.78797 | 69.91804 | 38973 ft | 539 kts | 65° |
| 2026-04-26 03:06 | 43.81702 | 70.01327 | 38974 ft | 537 kts | 65° |
| 2026-04-26 03:06 | 43.84598 | 70.10856 | 38975 ft | 537 kts | 65° |
| 2026-04-26 03:07 | 43.87490 | 70.20420 | 38971 ft | 536 kts | 65° |
| 2026-04-26 03:07 | 43.90351 | 70.29915 | 38977 ft | 535 kts | 65° |
| 2026-04-26 03:08 | 43.93227 | 70.39491 | 38981 ft | 535 kts | 65° |
| 2026-04-26 03:08 | 43.96074 | 70.49010 | 38986 ft | 535 kts | 65° |
| 2026-04-26 03:09 | 43.98915 | 70.58544 | 38986 ft | 535 kts | 65° |
| 2026-04-26 03:09 | 44.01752 | 70.68101 | 38991 ft | 536 kts | 65° |
| 2026-04-26 03:10 | 44.04578 | 70.77654 | 38999 ft | 536 kts | 65° |
| 2026-04-26 03:10 | 44.07401 | 70.87233 | 38999 ft | 536 kts | 65° |
| 2026-04-26 03:11 | 44.10227 | 70.96862 | 38997 ft | 535 kts | 65° |
| 2026-04-26 03:11 | 44.13022 | 71.06405 | 38997 ft | 535 kts | 66° |
| 2026-04-26 03:12 | 44.15819 | 71.16009 | 39006 ft | 535 kts | 65° |
| 2026-04-26 03:12 | 44.18618 | 71.25661 | 39002 ft | 535 kts | 66° |
| 2026-04-26 03:13 | 44.21384 | 71.35229 | 39003 ft | 535 kts | 66° |
| 2026-04-26 03:13 | 44.24173 | 71.44912 | 39006 ft | 535 kts | 66° |
| 2026-04-26 03:14 | 44.26922 | 71.54498 | 39008 ft | 533 kts | 66° |
| 2026-04-26 03:14 | 44.29675 | 71.64133 | 39003 ft | 533 kts | 66° |
| 2026-04-26 03:15 | 44.32410 | 71.73740 | 39005 ft | 533 kts | 66° |
| 2026-04-26 03:15 | 44.35144 | 71.83387 | 39007 ft | 532 kts | 66° |
| 2026-04-26 03:16 | 44.37844 | 71.92947 | 39005 ft | 530 kts | 66° |
| 2026-04-26 03:16 | 44.40538 | 72.02523 | 39005 ft | 530 kts | 66° |
| 2026-04-26 03:17 | 44.43221 | 72.12095 | 39017 ft | 530 kts | 66° |
| 2026-04-26 03:17 | 44.45906 | 72.21715 | 39016 ft | 528 kts | 66° |
| 2026-04-26 03:18 | 44.48567 | 72.31283 | 39020 ft | 528 kts | 66° |
| 2026-04-26 03:18 | 44.51222 | 72.40871 | 39019 ft | 528 kts | 66° |
| 2026-04-26 03:19 | 44.53860 | 72.50433 | 39028 ft | 526 kts | 66° |
| 2026-04-26 03:19 | 44.56488 | 72.59999 | 39027 ft | 525 kts | 66° |
| 2026-04-26 03:20 | 44.59099 | 72.69538 | 39027 ft | 525 kts | 67° |
| 2026-04-26 03:20 | 44.61718 | 72.79142 | 39030 ft | 525 kts | 67° |
| 2026-04-26 03:21 | 44.64309 | 72.88684 | 39033 ft | 522 kts | 67° |
| 2026-04-26 03:21 | 44.66877 | 72.98181 | 39032 ft | 521 kts | 67° |
| 2026-04-26 03:22 | 44.69455 | 73.07749 | 39038 ft | 521 kts | 67° |
| 2026-04-26 03:22 | 44.72002 | 73.17237 | 39047 ft | 520 kts | 68° |
| 2026-04-26 03:23 | 44.74539 | 73.26729 | 39042 ft | 517 kts | 68° |
| 2026-04-26 03:23 | 44.77054 | 73.36188 | 39042 ft | 517 kts | 68° |
| 2026-04-26 03:24 | 44.79557 | 73.45640 | 39037 ft | 517 kts | 68° |
| 2026-04-26 03:24 | 44.82069 | 73.55166 | 39038 ft | 514 kts | 68° |
| 2026-04-26 03:25 | 44.84536 | 73.64554 | 39037 ft | 513 kts | 68° |
| 2026-04-26 03:25 | 44.87011 | 73.74010 | 39035 ft | 513 kts | 68° |
| 2026-04-26 03:26 | 44.89467 | 73.83433 | 39036 ft | 513 kts | 68° |
| 2026-04-26 03:26 | 44.91916 | 73.92865 | 39035 ft | 512 kts | 68° |
| 2026-04-26 03:27 | 44.94365 | 74.02337 | 39037 ft | 512 kts | 68° |
| 2026-04-26 03:27 | 44.96799 | 74.11786 | 39040 ft | 512 kts | 68° |
| 2026-04-26 03:28 | 44.99230 | 74.21244 | 39040 ft | 512 kts | 68° |
| 2026-04-26 03:28 | 45.02079 | 74.30452 | 39046 ft | 511 kts | 63° |
| 2026-04-26 03:29 | 45.05060 | 74.39566 | 39046 ft | 511 kts | 63° |
| 2026-04-26 03:29 | 45.08064 | 74.48689 | 39053 ft | 511 kts | 63° |
| 2026-04-26 03:30 | 45.11044 | 74.57787 | 39046 ft | 511 kts | 63° |
| 2026-04-26 03:30 | 45.14009 | 74.66892 | 39052 ft | 511 kts | 63° |
| 2026-04-26 03:31 | 45.16995 | 74.76106 | 39052 ft | 511 kts | 64° |
| 2026-04-26 03:31 | 45.19936 | 74.85211 | 39051 ft | 511 kts | 64° |
| 2026-04-26 03:32 | 45.22894 | 74.94403 | 39050 ft | 511 kts | 64° |
| 2026-04-26 03:32 | 45.25842 | 75.03594 | 39056 ft | 511 kts | 64° |
| 2026-04-26 03:33 | 45.28776 | 75.12771 | 39056 ft | 511 kts | 64° |
| 2026-04-26 03:33 | 45.32025 | 75.21715 | 39062 ft | 509 kts | 58° |
| 2026-04-26 03:34 | 45.35543 | 75.30368 | 39064 ft | 508 kts | 57° |
| 2026-04-26 03:34 | 45.39129 | 75.39053 | 39061 ft | 508 kts | 57° |
| 2026-04-26 03:35 | 45.42702 | 75.47732 | 39067 ft | 508 kts | 57° |
| 2026-04-26 03:35 | 45.45661 | 75.54961 | 39069 ft | 507 kts | 57° |
| 2026-04-26 03:36 | 45.49787 | 75.65086 | 39072 ft | 508 kts | 58° |
| 2026-04-26 03:36 | 45.52760 | 75.72405 | 39075 ft | 508 kts | 58° |
| 2026-04-26 03:37 | 45.56287 | 75.81115 | 39075 ft | 508 kts | 58° |
| 2026-04-26 03:37 | 45.59820 | 75.89867 | 39080 ft | 507 kts | 58° |
| 2026-04-26 03:38 | 45.63328 | 75.98584 | 39079 ft | 506 kts | 58° |
| 2026-04-26 03:38 | 45.66827 | 76.07302 | 39080 ft | 506 kts | 58° |
| 2026-04-26 03:39 | 45.70314 | 76.16018 | 39082 ft | 506 kts | 58° |
| 2026-04-26 03:39 | 45.73781 | 76.24717 | 39097 ft | 504 kts | 58° |
| 2026-04-26 03:40 | 45.77245 | 76.33432 | 39082 ft | 505 kts | 58° |
| 2026-04-26 03:40 | 45.80726 | 76.42216 | 39090 ft | 505 kts | 58° |
| 2026-04-26 03:41 | 45.84185 | 76.50974 | 39088 ft | 505 kts | 58° |
| 2026-04-26 03:41 | 45.87616 | 76.59691 | 39092 ft | 503 kts | 58° |
| 2026-04-26 03:42 | 45.91046 | 76.68431 | 39092 ft | 503 kts | 58° |
| 2026-04-26 03:42 | 45.94487 | 76.77226 | 39092 ft | 503 kts | 58° |
| 2026-04-26 03:43 | 45.97889 | 76.85949 | 39106 ft | 502 kts | 58° |
| 2026-04-26 03:43 | 46.01298 | 76.94721 | 39102 ft | 501 kts | 58° |
| 2026-04-26 03:44 | 46.04675 | 77.03437 | 39099 ft | 501 kts | 58° |
| 2026-04-26 03:44 | 46.08068 | 77.12221 | 39096 ft | 501 kts | 58° |
| 2026-04-26 03:45 | 46.11443 | 77.20985 | 39105 ft | 501 kts | 58° |
| 2026-04-26 03:45 | 46.14814 | 77.29773 | 39122 ft | 500 kts | 58° |
| 2026-04-26 03:46 | 46.18183 | 77.38580 | 39105 ft | 500 kts | 58° |
| 2026-04-26 03:47 | 46.23201 | 77.51750 | 39131 ft | 500 kts | 58° |
| 2026-04-26 03:47 | 46.26567 | 77.60460 | 39115 ft | 498 kts | 54° |
| 2026-04-26 03:48 | 46.30787 | 77.68310 | 39115 ft | 494 kts | 46° |
| 2026-04-26 03:48 | 46.35325 | 77.75792 | 39120 ft | 495 kts | 45° |
| 2026-04-26 03:49 | 46.39927 | 77.83238 | 39120 ft | 495 kts | 45° |
| 2026-04-26 03:49 | 46.44523 | 77.90714 | 39127 ft | 494 kts | 45° |
| 2026-04-26 03:50 | 46.49072 | 77.98168 | 39122 ft | 494 kts | 45° |
| 2026-04-26 03:50 | 46.53602 | 78.05623 | 39129 ft | 494 kts | 45° |
| 2026-04-26 03:51 | 46.58131 | 78.13098 | 39130 ft | 494 kts | 45° |
| 2026-04-26 03:51 | 46.62670 | 78.20562 | 39126 ft | 493 kts | 45° |
| 2026-04-26 03:52 | 46.67236 | 78.28082 | 39138 ft | 493 kts | 45° |
| 2026-04-26 03:52 | 46.71748 | 78.35538 | 39137 ft | 492 kts | 45° |
| 2026-04-26 03:53 | 46.76290 | 78.43070 | 39138 ft | 492 kts | 45° |
| 2026-04-26 03:53 | 46.80800 | 78.50573 | 39154 ft | 493 kts | 45° |
| 2026-04-26 03:54 | 46.85301 | 78.58081 | 39142 ft | 493 kts | 45° |
| 2026-04-26 03:54 | 46.89825 | 78.65647 | 39141 ft | 494 kts | 45° |
| 2026-04-26 03:55 | 46.94324 | 78.73193 | 39145 ft | 494 kts | 45° |
| 2026-04-26 03:55 | 46.98839 | 78.80787 | 39149 ft | 493 kts | 45° |
| 2026-04-26 03:56 | 47.03336 | 78.88372 | 39153 ft | 493 kts | 45° |
| 2026-04-26 03:56 | 47.07822 | 78.95961 | 39149 ft | 493 kts | 45° |
| 2026-04-26 03:57 | 47.12316 | 79.03583 | 39151 ft | 493 kts | 45° |
| 2026-04-26 03:57 | 47.16150 | 79.12023 | 39151 ft | 501 kts | 62° |
| 2026-04-26 03:58 | 47.18037 | 79.21875 | 39152 ft | 509 kts | 82° |
| 2026-04-26 03:58 | 47.17829 | 79.32248 | 39150 ft | 512 kts | 94° |
| 2026-04-26 03:59 | 47.17029 | 79.42714 | 39155 ft | 513 kts | 95° |
| 2026-04-26 03:59 | 47.16170 | 79.53135 | 39151 ft | 513 kts | 95° |
| 2026-04-26 04:00 | 47.15352 | 79.63497 | 39159 ft | 513 kts | 95° |
| 2026-04-26 04:00 | 47.14549 | 79.73926 | 39157 ft | 514 kts | 95° |
| 2026-04-26 04:01 | 47.13748 | 79.84307 | 39153 ft | 514 kts | 95° |
| 2026-04-26 04:01 | 47.12942 | 79.94791 | 39156 ft | 513 kts | 94° |
| 2026-04-26 04:02 | 47.12145 | 80.05186 | 39158 ft | 513 kts | 94° |
| 2026-04-26 04:02 | 47.11335 | 80.15613 | 39157 ft | 513 kts | 94° |
| 2026-04-26 04:03 | 47.10517 | 80.26000 | 39161 ft | 513 kts | 94° |
| 2026-04-26 04:03 | 47.09690 | 80.36362 | 39160 ft | 513 kts | 95° |
| 2026-04-26 04:04 | 47.08853 | 80.46739 | 39162 ft | 513 kts | 95° |
| 2026-04-26 04:04 | 47.08002 | 80.57162 | 39164 ft | 512 kts | 95° |
| 2026-04-26 04:05 | 47.07146 | 80.67536 | 39161 ft | 512 kts | 95° |
| 2026-04-26 04:05 | 47.06286 | 80.77833 | 39168 ft | 512 kts | 95° |
| 2026-04-26 04:06 | 47.05410 | 80.88214 | 39165 ft | 512 kts | 95° |
| 2026-04-26 04:06 | 47.04524 | 80.98601 | 39173 ft | 512 kts | 95° |
| 2026-04-26 04:07 | 47.03639 | 81.08891 | 39158 ft | 512 kts | 95° |
| 2026-04-26 04:07 | 47.02734 | 81.19276 | 39170 ft | 512 kts | 95° |
| 2026-04-26 04:08 | 47.01821 | 81.29627 | 39173 ft | 512 kts | 95° |
| 2026-04-26 04:08 | 47.00899 | 81.39975 | 39173 ft | 512 kts | 95° |
| 2026-04-26 04:09 | 46.99967 | 81.50339 | 39176 ft | 512 kts | 95° |
| 2026-04-26 04:09 | 46.99031 | 81.60643 | 39173 ft | 512 kts | 95° |
| 2026-04-26 04:10 | 46.98078 | 81.71026 | 39173 ft | 512 kts | 95° |
| 2026-04-26 04:10 | 46.97125 | 81.81296 | 39181 ft | 512 kts | 95° |
| 2026-04-26 04:11 | 46.96160 | 81.91598 | 39175 ft | 510 kts | 95° |
| 2026-04-26 04:11 | 46.95185 | 82.01904 | 39178 ft | 510 kts | 95° |
| 2026-04-26 04:12 | 46.94193 | 82.12175 | 39175 ft | 510 kts | 95° |
| 2026-04-26 04:12 | 46.93191 | 82.22450 | 39202 ft | 510 kts | 96° |
| 2026-04-26 04:13 | 46.92182 | 82.32716 | 39189 ft | 509 kts | 96° |
| 2026-04-26 04:13 | 46.91168 | 82.42950 | 39189 ft | 508 kts | 96° |
| 2026-04-26 04:14 | 46.90143 | 82.53198 | 39202 ft | 508 kts | 96° |
| 2026-04-26 04:14 | 46.89115 | 82.63375 | 39191 ft | 508 kts | 96° |
| 2026-04-26 04:15 | 46.88072 | 82.73620 | 39196 ft | 508 kts | 96° |
| 2026-04-26 04:15 | 46.86968 | 82.83755 | 39200 ft | 509 kts | 101° |
| 2026-04-26 04:16 | 46.84444 | 82.93499 | 39201 ft | 513 kts | 117° |
| 2026-04-26 04:16 | 46.80829 | 83.02395 | 39196 ft | 513 kts | 121° |
| 2026-04-26 04:17 | 46.76997 | 83.11181 | 39205 ft | 513 kts | 122° |
| 2026-04-26 04:17 | 46.73154 | 83.19960 | 39200 ft | 513 kts | 122° |
| 2026-04-26 04:18 | 46.69321 | 83.28780 | 39191 ft | 513 kts | 121° |
| 2026-04-26 04:18 | 46.65517 | 83.37549 | 39200 ft | 513 kts | 121° |
| 2026-04-26 04:19 | 46.61426 | 83.46119 | 39194 ft | 514 kts | 126° |
| 2026-04-26 04:19 | 46.57141 | 83.54395 | 39207 ft | 514 kts | 127° |
| 2026-04-26 04:20 | 46.52871 | 83.62689 | 39186 ft | 514 kts | 126° |
| 2026-04-26 04:20 | 46.48613 | 83.71070 | 39187 ft | 514 kts | 126° |
| 2026-04-26 04:21 | 46.44379 | 83.79433 | 39190 ft | 514 kts | 126° |
| 2026-04-26 04:21 | 46.40175 | 83.87718 | 39180 ft | 514 kts | 126° |
| 2026-04-26 04:22 | 46.35914 | 83.96085 | 39196 ft | 514 kts | 126° |
| 2026-04-26 04:22 | 46.31662 | 84.04407 | 39205 ft | 514 kts | 127° |
| 2026-04-26 04:23 | 46.27423 | 84.12677 | 39194 ft | 514 kts | 127° |
| 2026-04-26 04:23 | 46.23150 | 84.20982 | 39210 ft | 514 kts | 127° |
| 2026-04-26 04:24 | 46.19585 | 84.27846 | 39205 ft | 514 kts | 127° |
| 2026-04-26 04:24 | 46.15281 | 84.36102 | 39199 ft | 514 kts | 127° |
| 2026-04-26 04:25 | 46.10964 | 84.44371 | 39208 ft | 515 kts | 127° |
| 2026-04-26 04:25 | 46.06656 | 84.52604 | 39203 ft | 515 kts | 127° |
| 2026-04-26 04:26 | 46.02357 | 84.60800 | 39191 ft | 515 kts | 128° |
| 2026-04-26 04:26 | 45.98024 | 84.69036 | 39194 ft | 516 kts | 128° |
| 2026-04-26 04:27 | 45.93686 | 84.77253 | 39180 ft | 516 kts | 128° |
| 2026-04-26 04:27 | 45.89350 | 84.85446 | 39195 ft | 516 kts | 128° |
| 2026-04-26 04:28 | 45.85006 | 84.93630 | 39196 ft | 515 kts | 128° |
| 2026-04-26 04:28 | 45.80664 | 85.01785 | 39190 ft | 516 kts | 128° |
| 2026-04-26 04:29 | 45.76314 | 85.09932 | 39195 ft | 516 kts | 128° |
| 2026-04-26 04:29 | 45.71925 | 85.18129 | 39194 ft | 516 kts | 128° |
| 2026-04-26 04:30 | 45.67557 | 85.26283 | 39178 ft | 516 kts | 128° |
| 2026-04-26 04:30 | 45.63202 | 85.34442 | 39195 ft | 518 kts | 128° |
| 2026-04-26 04:31 | 45.58834 | 85.42606 | 39192 ft | 518 kts | 128° |
| 2026-04-26 04:31 | 45.54462 | 85.50750 | 39192 ft | 518 kts | 128° |
| 2026-04-26 04:32 | 45.50072 | 85.58899 | 39188 ft | 518 kts | 128° |
| 2026-04-26 04:32 | 45.45673 | 85.67042 | 39193 ft | 519 kts | 129° |
| 2026-04-26 04:33 | 45.41246 | 85.75214 | 39194 ft | 520 kts | 129° |
| 2026-04-26 04:33 | 45.36845 | 85.83313 | 39187 ft | 520 kts | 129° |
| 2026-04-26 04:34 | 45.32405 | 85.91462 | 39193 ft | 520 kts | 129° |
| 2026-04-26 04:34 | 45.27964 | 85.99589 | 39189 ft | 520 kts | 129° |
| 2026-04-26 04:35 | 45.23559 | 86.07626 | 39191 ft | 520 kts | 129° |
| 2026-04-26 04:35 | 45.19084 | 86.15768 | 39189 ft | 520 kts | 129° |
| 2026-04-26 04:36 | 45.14673 | 86.23773 | 39192 ft | 519 kts | 129° |
| 2026-04-26 04:36 | 45.10216 | 86.31835 | 39194 ft | 519 kts | 129° |
| 2026-04-26 04:37 | 45.05744 | 86.39904 | 39196 ft | 519 kts | 129° |
| 2026-04-26 04:37 | 45.01306 | 86.47889 | 39191 ft | 519 kts | 129° |
| 2026-04-26 04:38 | 44.96820 | 86.55937 | 39191 ft | 519 kts | 129° |
| 2026-04-26 04:38 | 44.92360 | 86.63916 | 39198 ft | 519 kts | 130° |
| 2026-04-26 04:39 | 44.87894 | 86.71883 | 39199 ft | 519 kts | 130° |
| 2026-04-26 04:39 | 44.83404 | 86.79871 | 39205 ft | 519 kts | 130° |
| 2026-04-26 04:40 | 44.78888 | 86.87805 | 39207 ft | 519 kts | 130° |
| 2026-04-26 04:40 | 44.74326 | 86.95677 | 39215 ft | 519 kts | 131° |
| 2026-04-26 04:41 | 44.69770 | 87.03530 | 39208 ft | 520 kts | 131° |
| 2026-04-26 04:41 | 44.65199 | 87.11433 | 39206 ft | 520 kts | 131° |
| 2026-04-26 04:42 | 44.60662 | 87.19272 | 39201 ft | 520 kts | 131° |
| 2026-04-26 04:42 | 44.56113 | 87.27112 | 39196 ft | 520 kts | 131° |
| 2026-04-26 04:43 | 44.51584 | 87.35104 | 39205 ft | 522 kts | 129° |
| 2026-04-26 04:43 | 44.47225 | 87.43179 | 39206 ft | 523 kts | 129° |
| 2026-04-26 04:44 | 44.42840 | 87.51294 | 39204 ft | 523 kts | 129° |
| 2026-04-26 04:44 | 44.38414 | 87.59396 | 39200 ft | 523 kts | 129° |
| 2026-04-26 04:45 | 44.33979 | 87.67457 | 39200 ft | 523 kts | 129° |
| 2026-04-26 04:45 | 44.29597 | 87.75507 | 39203 ft | 523 kts | 129° |
| 2026-04-26 04:46 | 44.25232 | 87.83658 | 39206 ft | 523 kts | 129° |
| 2026-04-26 04:46 | 44.21174 | 87.92086 | 39206 ft | 525 kts | 118° |
| 2026-04-26 04:47 | 44.18978 | 88.01733 | 39219 ft | 526 kts | 97° |
| 2026-04-26 04:47 | 44.18828 | 88.06831 | 39223 ft | 526 kts | 86° |
| 2026-04-26 04:47 | 44.19282 | 88.11863 | 39225 ft | 525 kts | 79° |
| 2026-04-26 04:48 | 44.21492 | 88.26776 | 39223 ft | 525 kts | 76° |
| 2026-04-26 04:48 | 44.23041 | 88.36729 | 39214 ft | 524 kts | 77° |
| 2026-04-26 04:49 | 44.24528 | 88.46666 | 39214 ft | 524 kts | 77° |
| 2026-04-26 04:49 | 44.25987 | 88.56659 | 39209 ft | 524 kts | 77° |
| 2026-04-26 04:50 | 44.27420 | 88.66576 | 39203 ft | 524 kts | 78° |
| 2026-04-26 04:50 | 44.28854 | 88.76558 | 39202 ft | 524 kts | 78° |
| 2026-04-26 04:51 | 44.30277 | 88.86513 | 39195 ft | 524 kts | 78° |
| 2026-04-26 04:51 | 44.31700 | 88.96523 | 39194 ft | 525 kts | 78° |
| 2026-04-26 04:52 | 44.33110 | 89.06515 | 39192 ft | 525 kts | 78° |
| 2026-04-26 04:52 | 44.34503 | 89.16458 | 39188 ft | 525 kts | 78° |
| 2026-04-26 04:53 | 44.35901 | 89.26493 | 39188 ft | 525 kts | 78° |
| 2026-04-26 04:53 | 44.37287 | 89.36515 | 39184 ft | 527 kts | 78° |
| 2026-04-26 04:54 | 44.38667 | 89.46564 | 39184 ft | 527 kts | 78° |
| 2026-04-26 04:54 | 44.40043 | 89.56653 | 39178 ft | 527 kts | 78° |
| 2026-04-26 04:55 | 44.41080 | 89.66783 | 39177 ft | 528 kts | 89° |
| 2026-04-26 04:55 | 44.40121 | 89.76959 | 39185 ft | 526 kts | 105° |
| 2026-04-26 04:56 | 44.38124 | 89.86717 | 39181 ft | 526 kts | 108° |
| 2026-04-26 04:56 | 44.35935 | 89.96471 | 39177 ft | 526 kts | 109° |
| 2026-04-26 04:57 | 44.33748 | 90.06250 | 39183 ft | 527 kts | 108° |
| 2026-04-26 04:57 | 44.31589 | 90.16021 | 39184 ft | 528 kts | 108° |
| 2026-04-26 04:58 | 44.29426 | 90.25838 | 39185 ft | 528 kts | 108° |
| 2026-04-26 04:58 | 44.27258 | 90.35634 | 39187 ft | 528 kts | 108° |
| 2026-04-26 04:59 | 44.25082 | 90.45416 | 39183 ft | 529 kts | 108° |
| 2026-04-26 04:59 | 44.22890 | 90.55222 | 39187 ft | 529 kts | 108° |
| 2026-04-26 05:00 | 44.20696 | 90.64991 | 39188 ft | 528 kts | 108° |
| 2026-04-26 05:00 | 44.18504 | 90.74710 | 39189 ft | 528 kts | 108° |
| 2026-04-26 05:01 | 44.16289 | 90.84488 | 39184 ft | 527 kts | 109° |
| 2026-04-26 05:01 | 44.14074 | 90.94218 | 39190 ft | 526 kts | 109° |
| 2026-04-26 05:02 | 44.11866 | 91.03875 | 39190 ft | 526 kts | 109° |
| 2026-04-26 05:02 | 44.09649 | 91.13546 | 39189 ft | 526 kts | 109° |
| 2026-04-26 05:03 | 44.07408 | 91.23267 | 39190 ft | 526 kts | 109° |
| 2026-04-26 05:03 | 44.05160 | 91.32972 | 39192 ft | 526 kts | 109° |
| 2026-04-26 05:04 | 44.02921 | 91.42599 | 39193 ft | 526 kts | 109° |
| 2026-04-26 05:04 | 44.00647 | 91.52286 | 39190 ft | 527 kts | 110° |
| 2026-04-26 05:05 | 43.98363 | 91.61901 | 39198 ft | 529 kts | 110° |
| 2026-04-26 05:05 | 43.96055 | 91.71585 | 39199 ft | 529 kts | 110° |
| 2026-04-26 05:06 | 43.93724 | 91.81341 | 39200 ft | 529 kts | 110° |
| 2026-04-26 05:06 | 43.91398 | 91.91035 | 39211 ft | 529 kts | 110° |
| 2026-04-26 05:07 | 43.89077 | 92.00669 | 39201 ft | 529 kts | 110° |
| 2026-04-26 05:07 | 43.86730 | 92.10368 | 39199 ft | 529 kts | 110° |
| 2026-04-26 05:08 | 43.84386 | 92.20012 | 39198 ft | 530 kts | 110° |
| 2026-04-26 05:08 | 43.82024 | 92.29691 | 39177 ft | 530 kts | 110° |
| 2026-04-26 05:09 | 43.79677 | 92.39266 | 39186 ft | 530 kts | 110° |
| 2026-04-26 05:09 | 43.77282 | 92.48994 | 39189 ft | 530 kts | 110° |
| 2026-04-26 05:10 | 43.74909 | 92.58597 | 39189 ft | 530 kts | 110° |
| 2026-04-26 05:10 | 43.72510 | 92.68261 | 39181 ft | 530 kts | 110° |
| 2026-04-26 05:11 | 43.70122 | 92.77841 | 39187 ft | 530 kts | 110° |
| 2026-04-26 05:11 | 43.67712 | 92.87472 | 39186 ft | 530 kts | 110° |
| 2026-04-26 05:12 | 43.65294 | 92.97094 | 39187 ft | 530 kts | 110° |
| 2026-04-26 05:12 | 43.62918 | 93.06740 | 39193 ft | 530 kts | 109° |
| 2026-04-26 05:13 | 43.60629 | 93.16404 | 39192 ft | 530 kts | 109° |
| 2026-04-26 05:13 | 43.58719 | 93.24447 | 39189 ft | 530 kts | 109° |
| 2026-04-26 05:14 | 43.56020 | 93.35686 | 39189 ft | 530 kts | 110° |
| 2026-04-26 05:14 | 43.54075 | 93.43714 | 39186 ft | 529 kts | 110° |
| 2026-04-26 05:15 | 43.51736 | 93.53324 | 39173 ft | 529 kts | 110° |
| 2026-04-26 05:15 | 43.49387 | 93.62940 | 39173 ft | 529 kts | 110° |
| 2026-04-26 05:16 | 43.47036 | 93.72528 | 39174 ft | 529 kts | 110° |
| 2026-04-26 05:16 | 43.44667 | 93.82146 | 39165 ft | 529 kts | 110° |
| 2026-04-26 05:17 | 43.42290 | 93.91760 | 39166 ft | 529 kts | 110° |
| 2026-04-26 05:17 | 43.39920 | 94.01301 | 39174 ft | 529 kts | 110° |
| 2026-04-26 05:18 | 43.37534 | 94.10867 | 39176 ft | 529 kts | 110° |
| 2026-04-26 05:18 | 43.35144 | 94.20415 | 39167 ft | 529 kts | 111° |
| 2026-04-26 05:19 | 43.32732 | 94.30017 | 39192 ft | 530 kts | 111° |
| 2026-04-26 05:19 | 43.30318 | 94.39573 | 39192 ft | 530 kts | 111° |
| 2026-04-26 05:20 | 43.27902 | 94.49100 | 39183 ft | 530 kts | 111° |
| 2026-04-26 05:20 | 43.25476 | 94.58630 | 39179 ft | 530 kts | 111° |
| 2026-04-26 05:21 | 43.23032 | 94.68190 | 39178 ft | 531 kts | 111° |
| 2026-04-26 05:21 | 43.20573 | 94.77774 | 39157 ft | 532 kts | 112° |
| 2026-04-26 05:22 | 43.18122 | 94.87287 | 39155 ft | 532 kts | 112° |
| 2026-04-26 05:22 | 43.15645 | 94.96863 | 39132 ft | 532 kts | 112° |
| 2026-04-26 05:23 | 43.12534 | 95.06038 | 39122 ft | 528 kts | 127° |
| 2026-04-26 05:23 | 43.10286 | 95.09958 | 39204 ft | 522 kts | 138° |
| 2026-04-26 05:23 | 43.07595 | 95.13268 | 39361 ft | 515 kts | 147° |
| 2026-04-26 05:24 | 43.04729 | 95.16173 | 39496 ft | 513 kts | 150° |
| 2026-04-26 05:24 | 43.01828 | 95.18915 | 39636 ft | 512 kts | 151° |
| 2026-04-26 05:24 | 42.98839 | 95.21649 | 39758 ft | 511 kts | 152° |
| 2026-04-26 05:24 | 42.95910 | 95.24305 | 39881 ft | 512 kts | 152° |
| 2026-04-26 05:25 | 42.92942 | 95.27001 | 40002 ft | 512 kts | 151° |
| 2026-04-26 05:25 | 42.89972 | 95.29717 | 40116 ft | 513 kts | 151° |
| 2026-04-26 05:25 | 42.84030 | 95.35188 | 40236 ft | 516 kts | 151° |
| 2026-04-26 05:26 | 42.78082 | 95.40683 | 40384 ft | 518 kts | 151° |
| 2026-04-26 05:26 | 42.75080 | 95.43455 | 40523 ft | 518 kts | 150° |
| 2026-04-26 05:26 | 42.72107 | 95.46198 | 40641 ft | 518 kts | 150° |
| 2026-04-26 05:27 | 42.66154 | 95.51675 | 40820 ft | 518 kts | 151° |
| 2026-04-26 05:27 | 42.63183 | 95.54402 | 40934 ft | 518 kts | 151° |
| 2026-04-26 05:27 | 42.60189 | 95.57148 | 41029 ft | 518 kts | 150° |
| 2026-04-26 05:28 | 42.54223 | 95.62608 | 41087 ft | 519 kts | 151° |
| 2026-04-26 05:28 | 42.48235 | 95.68077 | 41091 ft | 519 kts | 151° |
| 2026-04-26 05:29 | 42.42253 | 95.73526 | 41090 ft | 518 kts | 151° |
| 2026-04-26 05:29 | 42.36263 | 95.78988 | 41104 ft | 520 kts | 150° |
| 2026-04-26 05:30 | 42.30285 | 95.84532 | 41103 ft | 521 kts | 150° |
| 2026-04-26 05:30 | 42.24307 | 95.90085 | 41091 ft | 520 kts | 150° |
| 2026-04-26 05:31 | 42.18338 | 95.95606 | 41110 ft | 519 kts | 150° |
| 2026-04-26 05:31 | 42.12409 | 96.01067 | 41114 ft | 519 kts | 150° |
| 2026-04-26 05:32 | 42.06459 | 96.06532 | 41117 ft | 519 kts | 150° |
| 2026-04-26 05:32 | 42.00478 | 96.12014 | 41123 ft | 519 kts | 150° |
| 2026-04-26 05:33 | 41.94642 | 96.17775 | 41117 ft | 525 kts | 142° |
| 2026-04-26 05:33 | 41.90088 | 96.25512 | 41114 ft | 536 kts | 120° |
| 2026-04-26 05:34 | 41.88639 | 96.30114 | 41115 ft | 539 kts | 108° |
| 2026-04-26 05:34 | 41.87855 | 96.35001 | 41120 ft | 541 kts | 96° |
| 2026-04-26 05:34 | 41.87866 | 96.45094 | 41114 ft | 541 kts | 86° |
| 2026-04-26 05:35 | 41.88373 | 96.55164 | 41109 ft | 542 kts | 85° |
| 2026-04-26 05:35 | 41.88893 | 96.65292 | 41102 ft | 543 kts | 85° |
| 2026-04-26 05:36 | 41.89348 | 96.75413 | 41100 ft | 543 kts | 86° |
| 2026-04-26 05:36 | 41.89760 | 96.85514 | 41093 ft | 543 kts | 86° |
| 2026-04-26 05:37 | 41.90159 | 96.95614 | 41090 ft | 543 kts | 86° |
| 2026-04-26 05:37 | 41.90553 | 97.05778 | 41077 ft | 544 kts | 86° |
| 2026-04-26 05:38 | 41.90937 | 97.15854 | 41073 ft | 544 kts | 86° |
| 2026-04-26 05:38 | 41.91315 | 97.26022 | 41073 ft | 544 kts | 86° |
| 2026-04-26 05:39 | 41.91683 | 97.36145 | 41066 ft | 544 kts | 86° |
| 2026-04-26 05:39 | 41.92042 | 97.46270 | 41068 ft | 544 kts | 86° |
| 2026-04-26 05:40 | 41.92393 | 97.56410 | 41064 ft | 544 kts | 86° |
| 2026-04-26 05:40 | 41.92735 | 97.66573 | 41052 ft | 544 kts | 86° |
| 2026-04-26 05:41 | 41.93068 | 97.76720 | 41047 ft | 544 kts | 86° |
| 2026-04-26 05:41 | 41.93392 | 97.86869 | 41050 ft | 544 kts | 86° |
| 2026-04-26 05:42 | 41.93706 | 97.97014 | 41047 ft | 544 kts | 86° |
| 2026-04-26 05:42 | 41.94013 | 98.07200 | 41044 ft | 544 kts | 86° |
| 2026-04-26 05:43 | 41.94311 | 98.17358 | 41041 ft | 544 kts | 86° |
| 2026-04-26 05:43 | 41.94598 | 98.27470 | 41038 ft | 544 kts | 86° |
| 2026-04-26 05:44 | 41.94878 | 98.37654 | 41033 ft | 544 kts | 86° |
| 2026-04-26 05:44 | 41.95149 | 98.47845 | 41034 ft | 545 kts | 86° |
| 2026-04-26 05:45 | 41.95410 | 98.57966 | 41023 ft | 545 kts | 86° |
| 2026-04-26 05:45 | 41.95663 | 98.68145 | 41018 ft | 545 kts | 86° |
| 2026-04-26 05:46 | 41.95907 | 98.78322 | 41008 ft | 546 kts | 86° |
| 2026-04-26 05:46 | 41.96142 | 98.88508 | 41016 ft | 546 kts | 86° |
| 2026-04-26 05:47 | 41.96370 | 98.98765 | 41018 ft | 546 kts | 86° |
| 2026-04-26 05:47 | 41.96587 | 99.08951 | 41001 ft | 546 kts | 86° |
| 2026-04-26 05:48 | 41.96795 | 99.19156 | 41003 ft | 547 kts | 86° |
| 2026-04-26 05:48 | 41.96995 | 99.29366 | 40993 ft | 547 kts | 86° |
| 2026-04-26 05:49 | 41.97276 | 99.44633 | 40990 ft | 547 kts | 86° |
| 2026-04-26 05:50 | 41.97453 | 99.54905 | 40987 ft | 547 kts | 86° |
| 2026-04-26 05:50 | 41.97621 | 99.65064 | 40983 ft | 548 kts | 86° |
| 2026-04-26 05:51 | 41.97780 | 99.75334 | 40978 ft | 548 kts | 86° |
| 2026-04-26 05:51 | 41.97930 | 99.85583 | 40981 ft | 548 kts | 86° |
| 2026-04-26 05:52 | 41.98070 | 99.95776 | 40975 ft | 548 kts | 86° |
| 2026-04-26 05:52 | 41.98202 | 100.06041 | 40971 ft | 548 kts | 86° |
| 2026-04-26 05:53 | 41.98325 | 100.16302 | 40969 ft | 548 kts | 86° |
| 2026-04-26 05:53 | 41.98438 | 100.26511 | 40969 ft | 548 kts | 86° |
| 2026-04-26 05:54 | 41.98542 | 100.36707 | 40967 ft | 548 kts | 86° |
| 2026-04-26 05:54 | 41.98638 | 100.46986 | 40965 ft | 548 kts | 87° |
| 2026-04-26 05:55 | 41.98724 | 100.57160 | 40965 ft | 548 kts | 87° |
| 2026-04-26 05:55 | 41.98801 | 100.67450 | 40963 ft | 548 kts | 86° |
| 2026-04-26 05:56 | 41.98870 | 100.77687 | 40963 ft | 548 kts | 87° |
| 2026-04-26 05:56 | 41.98929 | 100.87898 | 40960 ft | 548 kts | 87° |
| 2026-04-26 05:57 | 41.98978 | 100.98158 | 40961 ft | 548 kts | 87° |
| 2026-04-26 05:57 | 41.97983 | 101.08312 | 40960 ft | 552 kts | 106° |
| 2026-04-26 05:58 | 41.95565 | 101.18121 | 40954 ft | 552 kts | 110° |
| 2026-04-26 05:58 | 41.93342 | 101.26175 | 40955 ft | 552 kts | 111° |
| 2026-04-26 05:59 | 41.90193 | 101.37433 | 40952 ft | 553 kts | 110° |
| 2026-04-26 05:59 | 41.87945 | 101.45551 | 40952 ft | 554 kts | 110° |
| 2026-04-26 06:00 | 41.85293 | 101.55171 | 40952 ft | 554 kts | 110° |
| 2026-04-26 06:00 | 41.82607 | 101.64901 | 40955 ft | 554 kts | 110° |
| 2026-04-26 06:01 | 41.79939 | 101.74519 | 40941 ft | 555 kts | 110° |
| 2026-04-26 06:01 | 41.77232 | 101.84237 | 40953 ft | 555 kts | 110° |
| 2026-04-26 06:02 | 41.74516 | 101.93948 | 40950 ft | 555 kts | 110° |
| 2026-04-26 06:02 | 41.71818 | 102.03559 | 40950 ft | 555 kts | 110° |
| 2026-04-26 06:03 | 41.69074 | 102.13294 | 40952 ft | 556 kts | 110° |
| 2026-04-26 06:03 | 41.66342 | 102.22954 | 40951 ft | 556 kts | 110° |
| 2026-04-26 06:04 | 41.63611 | 102.32571 | 40950 ft | 556 kts | 110° |
| 2026-04-26 06:04 | 41.60854 | 102.42241 | 40959 ft | 556 kts | 110° |
| 2026-04-26 06:05 | 41.58084 | 102.51922 | 40950 ft | 556 kts | 110° |
| 2026-04-26 06:05 | 41.55311 | 102.61578 | 40952 ft | 557 kts | 111° |
| 2026-04-26 06:06 | 41.52543 | 102.71182 | 40955 ft | 557 kts | 111° |
| 2026-04-26 06:06 | 41.49855 | 102.80857 | 40962 ft | 557 kts | 109° |
| 2026-04-26 06:07 | 41.47322 | 102.90577 | 40958 ft | 557 kts | 108° |
| 2026-04-26 06:07 | 41.44834 | 103.00381 | 40957 ft | 558 kts | 108° |
| 2026-04-26 06:08 | 41.42221 | 103.10083 | 40958 ft | 558 kts | 110° |
| 2026-04-26 06:08 | 41.39495 | 103.19778 | 40961 ft | 558 kts | 110° |
| 2026-04-26 06:09 | 41.36773 | 103.29438 | 40958 ft | 558 kts | 110° |
| 2026-04-26 06:09 | 41.34050 | 103.39140 | 40961 ft | 558 kts | 110° |
| 2026-04-26 06:10 | 41.31327 | 103.48829 | 40965 ft | 558 kts | 110° |
| 2026-04-26 06:10 | 41.28604 | 103.58487 | 40962 ft | 558 kts | 110° |
| 2026-04-26 06:11 | 41.25885 | 103.68095 | 40955 ft | 558 kts | 110° |
| 2026-04-26 06:11 | 41.23130 | 103.77789 | 40962 ft | 558 kts | 110° |
| 2026-04-26 06:12 | 41.20396 | 103.87370 | 40963 ft | 558 kts | 110° |
| 2026-04-26 06:12 | 41.17624 | 103.97049 | 40955 ft | 558 kts | 110° |
| 2026-04-26 06:13 | 41.14863 | 104.06654 | 40971 ft | 558 kts | 110° |
| 2026-04-26 06:13 | 41.12103 | 104.16222 | 40968 ft | 558 kts | 110° |
| 2026-04-26 06:14 | 41.09315 | 104.25850 | 40956 ft | 558 kts | 110° |
| 2026-04-26 06:14 | 41.06515 | 104.35485 | 40956 ft | 559 kts | 110° |
| 2026-04-26 06:15 | 41.03717 | 104.45078 | 40967 ft | 559 kts | 110° |
| 2026-04-26 06:15 | 41.00970 | 104.54650 | 40974 ft | 559 kts | 109° |
| 2026-04-26 06:16 | 40.98297 | 104.64363 | 40968 ft | 559 kts | 109° |
| 2026-04-26 06:16 | 40.95644 | 104.73993 | 40971 ft | 559 kts | 109° |
| 2026-04-26 06:17 | 40.92954 | 104.83649 | 40971 ft | 559 kts | 109° |
| 2026-04-26 06:17 | 40.90257 | 104.93257 | 40986 ft | 559 kts | 109° |
| 2026-04-26 06:18 | 40.87553 | 105.02847 | 40980 ft | 559 kts | 109° |
| 2026-04-26 06:18 | 40.84833 | 105.12459 | 40981 ft | 558 kts | 109° |
| 2026-04-26 06:19 | 40.82111 | 105.22046 | 40963 ft | 558 kts | 109° |
| 2026-04-26 06:19 | 40.79379 | 105.31630 | 40967 ft | 558 kts | 109° |
| 2026-04-26 06:20 | 40.76638 | 105.41211 | 40967 ft | 558 kts | 109° |
| 2026-04-26 06:20 | 40.73881 | 105.50814 | 40966 ft | 558 kts | 110° |
| 2026-04-26 06:21 | 40.71124 | 105.60382 | 40967 ft | 557 kts | 110° |
| 2026-04-26 06:21 | 40.68365 | 105.69918 | 40965 ft | 557 kts | 110° |
| 2026-04-26 06:22 | 40.65603 | 105.79430 | 40969 ft | 557 kts | 110° |
| 2026-04-26 06:22 | 40.62826 | 105.88963 | 40968 ft | 557 kts | 110° |
| 2026-04-26 06:23 | 40.60048 | 105.98459 | 40967 ft | 557 kts | 110° |
| 2026-04-26 06:23 | 40.57256 | 106.07972 | 40969 ft | 557 kts | 110° |
| 2026-04-26 06:24 | 40.54466 | 106.17443 | 40968 ft | 557 kts | 110° |
| 2026-04-26 06:24 | 40.51660 | 106.26937 | 40946 ft | 556 kts | 110° |
| 2026-04-26 06:25 | 40.48872 | 106.36339 | 40953 ft | 557 kts | 110° |
| 2026-04-26 06:25 | 40.46047 | 106.45824 | 40947 ft | 557 kts | 110° |
| 2026-04-26 06:26 | 40.43200 | 106.55346 | 40938 ft | 557 kts | 110° |
| 2026-04-26 06:26 | 40.40378 | 106.64754 | 40939 ft | 557 kts | 110° |
| 2026-04-26 06:27 | 40.37535 | 106.74201 | 40940 ft | 557 kts | 110° |
| 2026-04-26 06:27 | 40.34678 | 106.83659 | 40936 ft | 557 kts | 110° |
| 2026-04-26 06:28 | 40.31993 | 106.93178 | 40936 ft | 555 kts | 102° |
| 2026-04-26 06:28 | 40.31293 | 106.98153 | 40935 ft | 550 kts | 91° |
| 2026-04-26 06:28 | 40.31200 | 107.03074 | 40939 ft | 546 kts | 84° |
| 2026-04-26 06:29 | 40.31580 | 107.13029 | 40939 ft | 544 kts | 81° |
| 2026-04-26 06:29 | 40.32146 | 107.22870 | 40936 ft | 544 kts | 81° |
| 2026-04-26 06:30 | 40.32693 | 107.32753 | 40935 ft | 544 kts | 81° |
| 2026-04-26 06:30 | 40.33195 | 107.42654 | 40940 ft | 544 kts | 82° |
| 2026-04-26 06:31 | 40.33672 | 107.52559 | 40931 ft | 544 kts | 82° |
| 2026-04-26 06:31 | 40.34135 | 107.62402 | 40932 ft | 544 kts | 82° |
| 2026-04-26 06:32 | 40.34596 | 107.72327 | 40929 ft | 544 kts | 82° |
| 2026-04-26 06:32 | 40.35050 | 107.82260 | 40929 ft | 544 kts | 82° |
| 2026-04-26 06:33 | 40.35494 | 107.92149 | 40928 ft | 544 kts | 82° |
| 2026-04-26 06:33 | 40.35931 | 108.02060 | 40932 ft | 544 kts | 82° |
| 2026-04-26 06:34 | 40.36340 | 108.11953 | 40925 ft | 544 kts | 83° |
| 2026-04-26 06:34 | 40.36724 | 108.21875 | 40924 ft | 544 kts | 83° |
| 2026-04-26 06:35 | 40.37101 | 108.31772 | 40928 ft | 544 kts | 83° |
| 2026-04-26 06:35 | 40.37474 | 108.41673 | 40923 ft | 545 kts | 83° |
| 2026-04-26 06:36 | 40.37840 | 108.51548 | 40922 ft | 544 kts | 83° |
| 2026-04-26 06:36 | 40.38200 | 108.61496 | 40923 ft | 545 kts | 83° |
| 2026-04-26 06:37 | 40.38550 | 108.71409 | 40921 ft | 545 kts | 83° |
| 2026-04-26 06:37 | 40.38891 | 108.81329 | 40910 ft | 545 kts | 83° |
| 2026-04-26 06:38 | 40.39224 | 108.91250 | 40924 ft | 545 kts | 83° |
| 2026-04-26 06:38 | 40.39549 | 109.01184 | 40948 ft | 545 kts | 84° |
| 2026-04-26 06:39 | 40.39866 | 109.11154 | 40924 ft | 545 kts | 84° |
| 2026-04-26 06:39 | 40.40173 | 109.21036 | 40926 ft | 545 kts | 84° |
| 2026-04-26 06:40 | 40.40471 | 109.30945 | 40925 ft | 545 kts | 84° |
| 2026-04-26 06:40 | 40.40763 | 109.40928 | 40925 ft | 545 kts | 84° |
| 2026-04-26 06:41 | 40.41046 | 109.50860 | 40929 ft | 545 kts | 84° |
| 2026-04-26 06:41 | 40.41320 | 109.60804 | 40927 ft | 546 kts | 84° |
| 2026-04-26 06:42 | 40.41586 | 109.70763 | 40930 ft | 546 kts | 84° |
| 2026-04-26 06:42 | 40.41843 | 109.80703 | 40942 ft | 546 kts | 84° |
| 2026-04-26 06:43 | 40.42091 | 109.90614 | 40928 ft | 546 kts | 84° |
| 2026-04-26 06:43 | 40.42323 | 110.00636 | 40934 ft | 547 kts | 85° |
| 2026-04-26 06:44 | 40.42308 | 110.10557 | 40938 ft | 548 kts | 87° |
| 2026-04-26 06:44 | 40.42188 | 110.20612 | 40945 ft | 548 kts | 87° |
| 2026-04-26 06:45 | 40.42092 | 110.30608 | 40943 ft | 548 kts | 87° |
| 2026-04-26 06:45 | 40.42012 | 110.40605 | 40937 ft | 548 kts | 87° |
| 2026-04-26 06:46 | 40.41934 | 110.50554 | 40945 ft | 548 kts | 87° |
| 2026-04-26 06:46 | 40.41863 | 110.58900 | 40944 ft | 549 kts | 87° |
| 2026-04-26 06:47 | 40.41768 | 110.68910 | 40945 ft | 549 kts | 87° |
| 2026-04-26 06:47 | 40.41664 | 110.78957 | 40945 ft | 549 kts | 87° |
| 2026-04-26 06:48 | 40.41552 | 110.88915 | 40945 ft | 549 kts | 88° |
| 2026-04-26 06:48 | 40.41430 | 110.98983 | 40944 ft | 549 kts | 88° |
| 2026-04-26 06:49 | 40.41300 | 111.08980 | 40943 ft | 549 kts | 88° |
| 2026-04-26 06:49 | 40.41162 | 111.18979 | 40943 ft | 549 kts | 88° |
| 2026-04-26 06:50 | 40.41015 | 111.28994 | 40942 ft | 549 kts | 88° |
| 2026-04-26 06:50 | 40.40858 | 111.39072 | 40942 ft | 549 kts | 88° |
| 2026-04-26 06:51 | 40.40690 | 111.49106 | 40949 ft | 549 kts | 88° |
| 2026-04-26 06:51 | 40.40424 | 111.64095 | 40952 ft | 549 kts | 88° |
| 2026-04-26 06:52 | 40.40236 | 111.74133 | 40954 ft | 549 kts | 88° |
| 2026-04-26 06:52 | 40.40040 | 111.84133 | 40951 ft | 549 kts | 88° |
| 2026-04-26 06:53 | 40.39269 | 111.94062 | 40951 ft | 554 kts | 107° |
| 2026-04-26 06:53 | 40.37741 | 111.98667 | 40954 ft | 553 kts | 122° |
| 2026-04-26 06:53 | 40.35448 | 112.02672 | 40955 ft | 549 kts | 137° |
| 2026-04-26 06:54 | 40.32506 | 112.05858 | 40956 ft | 541 kts | 152° |
| 2026-04-26 06:54 | 40.29165 | 112.07976 | 40966 ft | 529 kts | 167° |
| 2026-04-26 06:54 | 40.25611 | 112.08957 | 40961 ft | 515 kts | 183° |
| 2026-04-26 06:54 | 40.22138 | 112.08771 | 40953 ft | 497 kts | 198° |
| 2026-04-26 06:55 | 40.18866 | 112.07456 | 40965 ft | 479 kts | 213° |
| 2026-04-26 06:55 | 40.16116 | 112.05224 | 40968 ft | 465 kts | 225° |
| 2026-04-26 06:55 | 40.10374 | 112.01104 | 40960 ft | 491 kts | 202° |
| 2026-04-26 06:56 | 40.06945 | 112.00489 | 40960 ft | 508 kts | 187° |
| 2026-04-26 06:56 | 40.03385 | 112.01030 | 40945 ft | 524 kts | 172° |
| 2026-04-26 06:56 | 39.99940 | 112.02728 | 40955 ft | 537 kts | 157° |
| 2026-04-26 06:56 | 39.96802 | 112.05415 | 40966 ft | 545 kts | 147° |
| 2026-04-26 06:57 | 39.90365 | 112.10445 | 40965 ft | 532 kts | 167° |
| 2026-04-26 06:57 | 39.86798 | 112.11529 | 40969 ft | 517 kts | 181° |
| 2026-04-26 06:57 | 39.83238 | 112.12138 | 40966 ft | 521 kts | 177° |
| 2026-04-26 06:58 | 39.76092 | 112.13771 | 40961 ft | 522 kts | 177° |
| 2026-04-26 06:58 | 39.68969 | 112.15362 | 40957 ft | 522 kts | 177° |
| 2026-04-26 06:59 | 39.61820 | 112.17035 | 40960 ft | 522 kts | 176° |
| 2026-04-26 06:59 | 39.54679 | 112.18753 | 40960 ft | 522 kts | 176° |
| 2026-04-26 07:00 | 39.47487 | 112.20494 | 40965 ft | 522 kts | 176° |
| 2026-04-26 07:00 | 39.40342 | 112.22248 | 40962 ft | 523 kts | 176° |
| 2026-04-26 07:01 | 39.33220 | 112.23998 | 40955 ft | 523 kts | 176° |
| 2026-04-26 07:01 | 39.26078 | 112.25744 | 40959 ft | 523 kts | 176° |
| 2026-04-26 07:02 | 39.18917 | 112.27489 | 40956 ft | 524 kts | 176° |
| 2026-04-26 07:02 | 39.11794 | 112.29224 | 40951 ft | 524 kts | 176° |
| 2026-04-26 07:03 | 39.04626 | 112.30963 | 40948 ft | 525 kts | 176° |
| 2026-04-26 07:03 | 38.97429 | 112.32707 | 40954 ft | 525 kts | 176° |
| 2026-04-26 07:04 | 38.90242 | 112.34446 | 40946 ft | 525 kts | 176° |
| 2026-04-26 07:04 | 38.83060 | 112.36179 | 40951 ft | 525 kts | 176° |
| 2026-04-26 07:05 | 38.75875 | 112.37910 | 40947 ft | 525 kts | 176° |
| 2026-04-26 07:05 | 38.68681 | 112.39647 | 40948 ft | 526 kts | 176° |
| 2026-04-26 07:06 | 38.61489 | 112.41368 | 40939 ft | 525 kts | 176° |
| 2026-04-26 07:06 | 38.54398 | 112.43052 | 40938 ft | 525 kts | 176° |
| 2026-04-26 07:07 | 38.47219 | 112.44766 | 40908 ft | 525 kts | 176° |
| 2026-04-26 07:07 | 38.40090 | 112.46472 | 40925 ft | 524 kts | 176° |
| 2026-04-26 07:08 | 38.32926 | 112.48180 | 40922 ft | 523 kts | 176° |
| 2026-04-26 07:08 | 38.25762 | 112.49882 | 40922 ft | 523 kts | 176° |
| 2026-04-26 07:09 | 38.18594 | 112.51581 | 40916 ft | 523 kts | 176° |
| 2026-04-26 07:09 | 38.11477 | 112.53263 | 40912 ft | 523 kts | 176° |
| 2026-04-26 07:11 | 37.93576 | 112.57483 | 40889 ft | 523 kts | 176° |
| 2026-04-26 07:11 | 37.86411 | 112.59168 | 40884 ft | 523 kts | 176° |
| 2026-04-26 07:12 | 37.79261 | 112.60902 | 40881 ft | 524 kts | 176° |
| 2026-04-26 07:12 | 37.72099 | 112.62705 | 40887 ft | 526 kts | 174° |
| 2026-04-26 07:13 | 37.65017 | 112.65011 | 40875 ft | 529 kts | 171° |
| 2026-04-26 07:13 | 37.57911 | 112.67501 | 40881 ft | 530 kts | 171° |
| 2026-04-26 07:14 | 37.50782 | 112.69961 | 40874 ft | 529 kts | 171° |
| 2026-04-26 07:14 | 37.43718 | 112.72337 | 40877 ft | 529 kts | 172° |
| 2026-04-26 07:15 | 37.36611 | 112.74702 | 40873 ft | 528 kts | 172° |
| 2026-04-26 07:15 | 37.29500 | 112.77063 | 40864 ft | 528 kts | 172° |
| 2026-04-26 07:16 | 37.22397 | 112.79416 | 40874 ft | 527 kts | 172° |
| 2026-04-26 07:16 | 37.15305 | 112.81761 | 40875 ft | 526 kts | 172° |
| 2026-04-26 07:17 | 37.08224 | 112.84101 | 40876 ft | 526 kts | 172° |
| 2026-04-26 07:17 | 37.01190 | 112.86431 | 40880 ft | 525 kts | 172° |
| 2026-04-26 07:18 | 36.94128 | 112.88766 | 40882 ft | 525 kts | 172° |
| 2026-04-26 07:18 | 36.87057 | 112.91096 | 40884 ft | 525 kts | 172° |
| 2026-04-26 07:19 | 36.79989 | 112.93423 | 40872 ft | 525 kts | 172° |
| 2026-04-26 07:19 | 36.72933 | 112.95751 | 40873 ft | 524 kts | 172° |
| 2026-04-26 07:20 | 36.65869 | 112.98057 | 40885 ft | 524 kts | 172° |
| 2026-04-26 07:20 | 36.58855 | 113.00342 | 40882 ft | 524 kts | 172° |
| 2026-04-26 07:21 | 36.51792 | 113.02644 | 40883 ft | 524 kts | 172° |
| 2026-04-26 07:21 | 36.44714 | 113.04947 | 40886 ft | 524 kts | 172° |
| 2026-04-26 07:22 | 36.37652 | 113.07242 | 40886 ft | 524 kts | 172° |
| 2026-04-26 07:22 | 36.30595 | 113.09530 | 40876 ft | 524 kts | 172° |
| 2026-04-26 07:23 | 36.23599 | 113.11934 | 40901 ft | 529 kts | 167° |
| 2026-04-26 07:23 | 36.16626 | 113.14946 | 40883 ft | 531 kts | 166° |
| 2026-04-26 07:24 | 36.09672 | 113.18076 | 40879 ft | 531 kts | 166° |
| 2026-04-26 07:24 | 36.02717 | 113.21218 | 40896 ft | 532 kts | 166° |
| 2026-04-26 07:25 | 35.95755 | 113.24345 | 40901 ft | 532 kts | 166° |
| 2026-04-26 07:25 | 35.88785 | 113.27459 | 40905 ft | 532 kts | 166° |
| 2026-04-26 07:26 | 35.81823 | 113.30569 | 40893 ft | 533 kts | 166° |
| 2026-04-26 07:26 | 35.74893 | 113.33669 | 40902 ft | 533 kts | 166° |
| 2026-04-26 07:27 | 35.67924 | 113.36780 | 40902 ft | 533 kts | 166° |
| 2026-04-26 07:27 | 35.60946 | 113.39892 | 40885 ft | 533 kts | 166° |
| 2026-04-26 07:28 | 35.53984 | 113.42996 | 40876 ft | 532 kts | 166° |
| 2026-04-26 07:28 | 35.47019 | 113.46074 | 40881 ft | 532 kts | 166° |
| 2026-04-26 07:29 | 35.40046 | 113.49164 | 40867 ft | 532 kts | 166° |
| 2026-04-26 07:29 | 35.33127 | 113.52239 | 40822 ft | 532 kts | 166° |
| 2026-04-26 07:30 | 35.26156 | 113.55334 | 40848 ft | 533 kts | 166° |
| 2026-04-26 07:30 | 35.19181 | 113.58427 | 40837 ft | 533 kts | 166° |
| 2026-04-26 07:31 | 35.12209 | 113.61513 | 40832 ft | 533 kts | 166° |
| 2026-04-26 07:31 | 35.05241 | 113.64592 | 40825 ft | 532 kts | 166° |
| 2026-04-26 07:32 | 34.98278 | 113.67663 | 40829 ft | 531 kts | 166° |
| 2026-04-26 07:32 | 34.91321 | 113.70732 | 40830 ft | 531 kts | 166° |
| 2026-04-26 07:33 | 34.84369 | 113.73766 | 40828 ft | 530 kts | 168° |
| 2026-04-26 07:33 | 34.77355 | 113.76193 | 40830 ft | 525 kts | 172° |
| 2026-04-26 07:34 | 34.70258 | 113.78365 | 40830 ft | 525 kts | 172° |
| 2026-04-26 07:34 | 34.64365 | 113.80220 | 40829 ft | 526 kts | 172° |
| 2026-04-26 07:35 | 34.57285 | 113.82524 | 40828 ft | 526 kts | 171° |
| 2026-04-26 07:35 | 34.50214 | 113.84857 | 40829 ft | 527 kts | 171° |
| 2026-04-26 07:36 | 34.43125 | 113.87128 | 40832 ft | 526 kts | 172° |
| 2026-04-26 07:36 | 34.36076 | 113.89334 | 40832 ft | 526 kts | 172° |
| 2026-04-26 07:37 | 34.28980 | 113.91558 | 40822 ft | 526 kts | 172° |
| 2026-04-26 07:37 | 34.21908 | 113.93783 | 40831 ft | 525 kts | 172° |
| 2026-04-26 07:38 | 34.14828 | 113.96009 | 40824 ft | 525 kts | 172° |
| 2026-04-26 07:38 | 34.07746 | 113.98232 | 40825 ft | 525 kts | 172° |
| 2026-04-26 07:39 | 34.00714 | 114.00435 | 40825 ft | 525 kts | 172° |
| 2026-04-26 07:39 | 33.93638 | 114.02648 | 40825 ft | 525 kts | 172° |
| 2026-04-26 07:40 | 33.86566 | 114.04854 | 40825 ft | 525 kts | 172° |
| 2026-04-26 07:40 | 33.79490 | 114.07058 | 40820 ft | 524 kts | 172° |
| 2026-04-26 07:41 | 33.72425 | 114.09254 | 40836 ft | 523 kts | 172° |
| 2026-04-26 07:41 | 33.65418 | 114.11429 | 40835 ft | 523 kts | 172° |
| 2026-04-26 07:42 | 33.58364 | 114.13615 | 40834 ft | 523 kts | 172° |
| 2026-04-26 07:42 | 33.51314 | 114.15794 | 40829 ft | 523 kts | 172° |
| 2026-04-26 07:43 | 33.44265 | 114.17970 | 40846 ft | 523 kts | 172° |
| 2026-04-26 07:43 | 33.37210 | 114.20143 | 40828 ft | 523 kts | 172° |
| 2026-04-26 07:44 | 33.30160 | 114.22309 | 40828 ft | 523 kts | 172° |
| 2026-04-26 07:44 | 33.23150 | 114.24461 | 40834 ft | 522 kts | 172° |
| 2026-04-26 07:45 | 33.16108 | 114.26619 | 40826 ft | 522 kts | 172° |
| 2026-04-26 07:45 | 33.09060 | 114.28775 | 40829 ft | 522 kts | 172° |
| 2026-04-26 07:46 | 33.02023 | 114.30929 | 40808 ft | 523 kts | 171° |
| 2026-04-26 07:46 | 32.95173 | 114.34154 | 40828 ft | 535 kts | 156° |
| 2026-04-26 07:47 | 32.89316 | 114.39639 | 40832 ft | 548 kts | 133° |
| 2026-04-26 07:47 | 32.87086 | 114.43356 | 40835 ft | 552 kts | 121° |
| 2026-04-26 07:47 | 32.85287 | 114.47389 | 40833 ft | 553 kts | 116° |
| 2026-04-26 07:48 | 32.82209 | 114.55782 | 40835 ft | 553 kts | 112° |
| 2026-04-26 07:48 | 32.79272 | 114.64239 | 40837 ft | 554 kts | 112° |
| 2026-04-26 07:49 | 32.76248 | 114.72671 | 40836 ft | 554 kts | 113° |
| 2026-04-26 07:49 | 32.73183 | 114.80998 | 40840 ft | 554 kts | 114° |
| 2026-04-26 07:50 | 32.68519 | 114.93548 | 40841 ft | 554 kts | 114° |
| 2026-04-26 07:50 | 32.65404 | 115.01914 | 40853 ft | 554 kts | 114° |
| 2026-04-26 07:51 | 32.62290 | 115.10262 | 40836 ft | 553 kts | 114° |
| 2026-04-26 07:51 | 32.59165 | 115.18622 | 40831 ft | 554 kts | 114° |
| 2026-04-26 07:52 | 32.56058 | 115.26915 | 40842 ft | 554 kts | 114° |
| 2026-04-26 07:52 | 32.52902 | 115.35314 | 40846 ft | 554 kts | 114° |
| 2026-04-26 07:53 | 32.49761 | 115.43655 | 40845 ft | 554 kts | 114° |
| 2026-04-26 07:53 | 32.46634 | 115.51938 | 40847 ft | 554 kts | 114° |
| 2026-04-26 07:54 | 32.43478 | 115.60277 | 40848 ft | 554 kts | 114° |
| 2026-04-26 07:54 | 32.40319 | 115.68603 | 40854 ft | 554 kts | 114° |
| 2026-04-26 07:55 | 32.37154 | 115.76926 | 40852 ft | 554 kts | 114° |
| 2026-04-26 07:55 | 32.34002 | 115.85195 | 40854 ft | 554 kts | 114° |
| 2026-04-26 07:56 | 32.30828 | 115.93501 | 40857 ft | 554 kts | 114° |
| 2026-04-26 07:56 | 32.27646 | 116.01806 | 40860 ft | 554 kts | 114° |
| 2026-04-26 07:57 | 32.24460 | 116.10104 | 40857 ft | 554 kts | 114° |
| 2026-04-26 07:57 | 32.21271 | 116.18390 | 40863 ft | 554 kts | 114° |
| 2026-04-26 07:58 | 32.18074 | 116.26676 | 40872 ft | 554 kts | 114° |
| 2026-04-26 07:58 | 32.14874 | 116.34950 | 40866 ft | 553 kts | 114° |
| 2026-04-26 07:59 | 32.11694 | 116.43153 | 40869 ft | 553 kts | 114° |
| 2026-04-26 07:59 | 32.08484 | 116.51412 | 40873 ft | 553 kts | 114° |
| 2026-04-26 08:00 | 32.05268 | 116.59667 | 40883 ft | 553 kts | 114° |
| 2026-04-26 08:00 | 32.02049 | 116.67913 | 40869 ft | 554 kts | 114° |
| 2026-04-26 08:01 | 31.98834 | 116.76130 | 40901 ft | 554 kts | 114° |
| 2026-04-26 08:01 | 31.95599 | 116.84376 | 40908 ft | 554 kts | 115° |
| 2026-04-26 08:02 | 31.92358 | 116.92617 | 40913 ft | 554 kts | 114° |
| 2026-04-26 08:02 | 31.89111 | 117.00856 | 40910 ft | 554 kts | 114° |
| 2026-04-26 08:03 | 31.85864 | 117.09075 | 40905 ft | 554 kts | 114° |
| 2026-04-26 08:03 | 31.82610 | 117.17295 | 40902 ft | 554 kts | 115° |
| 2026-04-26 08:04 | 31.79377 | 117.25461 | 40899 ft | 554 kts | 113° |
| 2026-04-26 08:04 | 31.77280 | 117.34122 | 40902 ft | 550 kts | 96° |
| 2026-04-26 08:05 | 31.76451 | 117.43031 | 40901 ft | 548 kts | 91° |
| 2026-04-26 08:05 | 31.75915 | 117.51954 | 40906 ft | 548 kts | 90° |
| 2026-04-26 08:06 | 31.75366 | 117.60887 | 40904 ft | 548 kts | 91° |
| 2026-04-26 08:06 | 31.74759 | 117.69832 | 40907 ft | 548 kts | 91° |
| 2026-04-26 08:07 | 31.74122 | 117.78767 | 40907 ft | 549 kts | 91° |
| 2026-04-26 08:07 | 31.73475 | 117.87698 | 40908 ft | 549 kts | 91° |
| 2026-04-26 08:08 | 31.72824 | 117.96631 | 40937 ft | 549 kts | 91° |
| 2026-04-26 08:08 | 31.72168 | 118.05574 | 40911 ft | 549 kts | 91° |
| 2026-04-26 08:09 | 31.71520 | 118.14455 | 40911 ft | 549 kts | 91° |
| 2026-04-26 08:09 | 31.70899 | 118.23404 | 40915 ft | 549 kts | 91° |
| 2026-04-26 08:10 | 31.70280 | 118.32341 | 40917 ft | 549 kts | 91° |
| 2026-04-26 08:10 | 31.69649 | 118.41290 | 40918 ft | 549 kts | 91° |
| 2026-04-26 08:11 | 31.69010 | 118.50230 | 40920 ft | 549 kts | 91° |
| 2026-04-26 08:11 | 31.68365 | 118.59161 | 40927 ft | 549 kts | 91° |
| 2026-04-26 08:12 | 31.67712 | 118.68100 | 40936 ft | 549 kts | 91° |
| 2026-04-26 08:12 | 31.67052 | 118.77039 | 40912 ft | 549 kts | 91° |
| 2026-04-26 08:13 | 31.66393 | 118.85909 | 40914 ft | 549 kts | 91° |
| 2026-04-26 08:13 | 31.65722 | 118.94847 | 40911 ft | 549 kts | 92° |
| 2026-04-26 08:14 | 31.65049 | 119.03770 | 40919 ft | 549 kts | 92° |
| 2026-04-26 08:14 | 31.64501 | 119.12697 | 40931 ft | 547 kts | 90° |
| 2026-04-26 08:15 | 31.64111 | 119.21626 | 40931 ft | 547 kts | 89° |
| 2026-04-26 08:15 | 31.63755 | 119.30546 | 40929 ft | 546 kts | 89° |
| 2026-04-26 08:16 | 31.63371 | 119.39406 | 40930 ft | 546 kts | 90° |
| 2026-04-26 08:16 | 31.62956 | 119.48312 | 40614 ft | 545 kts | 90° |
| 2026-04-26 08:17 | 31.62742 | 119.52749 | 39926 ft | 546 kts | 89° |
| 2026-04-26 08:17 | 31.62525 | 119.57198 | 39271 ft | 546 kts | 89° |
| 2026-04-26 08:17 | 31.62308 | 119.61652 | 38620 ft | 547 kts | 89° |
| 2026-04-26 08:17 | 31.62090 | 119.66105 | 37861 ft | 547 kts | 89° |
| 2026-04-26 08:18 | 31.61876 | 119.70563 | 37180 ft | 545 kts | 88° |
| 2026-04-26 08:18 | 31.61674 | 119.74995 | 36503 ft | 544 kts | 88° |
| 2026-04-26 08:18 | 31.61473 | 119.79417 | 35803 ft | 543 kts | 88° |
| 2026-04-26 08:18 | 31.61270 | 119.83844 | 35076 ft | 543 kts | 88° |
| 2026-04-26 08:19 | 31.61064 | 119.88279 | 34265 ft | 546 kts | 88° |
| 2026-04-26 08:19 | 31.60856 | 119.92739 | 33373 ft | 548 kts | 88° |
| 2026-04-26 08:19 | 31.60645 | 119.97215 | 32485 ft | 549 kts | 88° |
| 2026-04-26 08:19 | 31.60431 | 120.01687 | 31606 ft | 551 kts | 88° |
| 2026-04-26 08:20 | 31.60289 | 120.04655 | 31012 ft | 551 kts | 88° |
| 2026-04-26 08:20 | 31.59998 | 120.10678 | 29718 ft | 554 kts | 89° |
| 2026-04-26 08:20 | 31.59853 | 120.13675 | 29057 ft | 555 kts | 89° |
| 2026-04-26 08:20 | 31.59632 | 120.18163 | 28390 ft | 548 kts | 89° |
| 2026-04-26 08:21 | 31.59412 | 120.22596 | 27732 ft | 542 kts | 89° |
| 2026-04-26 08:21 | 31.59121 | 120.28406 | 26851 ft | 535 kts | 90° |
| 2026-04-26 08:21 | 31.58622 | 120.32706 | 26188 ft | 534 kts | 101° |
| 2026-04-26 08:21 | 31.57925 | 120.35538 | 25750 ft | 532 kts | 106° |
| 2026-04-26 08:22 | 31.56739 | 120.39634 | 25092 ft | 528 kts | 108° |
| 2026-04-26 08:22 | 31.55541 | 120.43631 | 24446 ft | 524 kts | 108° |
| 2026-04-26 08:22 | 31.54339 | 120.47642 | 23787 ft | 519 kts | 108° |
| 2026-04-26 08:22 | 31.53150 | 120.51630 | 23066 ft | 515 kts | 108° |
| 2026-04-26 08:23 | 31.51977 | 120.55574 | 22391 ft | 508 kts | 108° |
| 2026-04-26 08:23 | 31.50821 | 120.59461 | 21741 ft | 501 kts | 108° |
| 2026-04-26 08:23 | 31.49679 | 120.63302 | 21100 ft | 495 kts | 108° |
| 2026-04-26 08:23 | 31.48554 | 120.67086 | 20452 ft | 489 kts | 108° |
| 2026-04-26 08:24 | 31.47441 | 120.70824 | 19811 ft | 484 kts | 108° |
| 2026-04-26 08:24 | 31.46337 | 120.74532 | 19167 ft | 479 kts | 108° |
| 2026-04-26 08:24 | 31.45245 | 120.78194 | 18534 ft | 474 kts | 107° |
| 2026-04-26 08:24 | 31.44153 | 120.81824 | 17849 ft | 470 kts | 108° |
| 2026-04-26 08:25 | 31.43042 | 120.85395 | 17193 ft | 464 kts | 109° |
| 2026-04-26 08:25 | 31.41939 | 120.88921 | 16539 ft | 458 kts | 109° |
| 2026-04-26 08:25 | 31.40853 | 120.92393 | 15899 ft | 452 kts | 109° |
| 2026-04-26 08:25 | 31.39796 | 120.95780 | 15282 ft | 446 kts | 109° |
| 2026-04-26 08:26 | 31.38759 | 120.99176 | 14643 ft | 440 kts | 109° |
| 2026-04-26 08:26 | 31.37739 | 121.02535 | 14014 ft | 435 kts | 109° |
| 2026-04-26 08:26 | 31.36733 | 121.05849 | 13344 ft | 429 kts | 109° |
| 2026-04-26 08:26 | 31.35742 | 121.09105 | 12700 ft | 423 kts | 109° |
| 2026-04-26 08:27 | 31.34761 | 121.12328 | 12072 ft | 416 kts | 109° |
| 2026-04-26 08:27 | 31.33810 | 121.15501 | 11477 ft | 409 kts | 109° |
| 2026-04-26 08:27 | 31.32877 | 121.18613 | 11073 ft | 397 kts | 109° |
| 2026-04-26 08:27 | 31.31979 | 121.21606 | 10829 ft | 382 kts | 109° |
| 2026-04-26 08:28 | 31.31122 | 121.24452 | 10883 ft | 356 kts | 109° |
| 2026-04-26 08:28 | 31.30343 | 121.27035 | 10745 ft | 328 kts | 109° |
| 2026-04-26 08:28 | 31.29609 | 121.29470 | 10499 ft | 309 kts | 108° |
| 2026-04-26 08:28 | 31.28907 | 121.31799 | 10267 ft | 300 kts | 108° |
| 2026-04-26 08:29 | 31.28225 | 121.34068 | 10090 ft | 292 kts | 108° |
| 2026-04-26 08:29 | 31.27552 | 121.36296 | 9937 ft | 290 kts | 108° |
| 2026-04-26 08:29 | 31.26876 | 121.38521 | 9752 ft | 290 kts | 108° |
| 2026-04-26 08:29 | 31.26205 | 121.40729 | 9471 ft | 288 kts | 108° |
| 2026-04-26 08:30 | 31.25537 | 121.42924 | 9272 ft | 286 kts | 109° |
| 2026-04-26 08:30 | 31.24870 | 121.45116 | 9123 ft | 286 kts | 109° |
| 2026-04-26 08:30 | 31.24204 | 121.47307 | 8926 ft | 285 kts | 109° |
| 2026-04-26 08:30 | 31.23545 | 121.49479 | 8660 ft | 283 kts | 109° |
| 2026-04-26 08:31 | 31.22933 | 121.51657 | 8392 ft | 281 kts | 102° |
| 2026-04-26 08:31 | 31.22892 | 121.53904 | 8143 ft | 275 kts | 76° |
| 2026-04-26 08:31 | 31.23388 | 121.56056 | 7885 ft | 273 kts | 69° |
| 2026-04-26 08:31 | 31.23983 | 121.58146 | 7639 ft | 270 kts | 67° |
| 2026-04-26 08:32 | 31.24866 | 121.60051 | 7381 ft | 264 kts | 46° |
| 2026-04-26 08:32 | 31.26302 | 121.61290 | 7137 ft | 254 kts | 18° |
| 2026-04-26 08:32 | 31.28004 | 121.61606 | 6795 ft | 246 kts | 352° |
| 2026-04-26 08:32 | 31.29636 | 121.61176 | 6462 ft | 242 kts | 340° |
| 2026-04-26 08:33 | 31.31208 | 121.60563 | 6265 ft | 233 kts | 339° |
| 2026-04-26 08:33 | 31.32714 | 121.59957 | 6097 ft | 225 kts | 338° |
| 2026-04-26 08:33 | 31.34180 | 121.59374 | 5783 ft | 221 kts | 339° |
| 2026-04-26 08:33 | 31.35638 | 121.58806 | 5301 ft | 222 kts | 339° |
| 2026-04-26 08:34 | 31.37112 | 121.58235 | 4854 ft | 223 kts | 338° |
| 2026-04-26 08:34 | 31.38590 | 121.57668 | 4377 ft | 223 kts | 338° |
| 2026-04-26 08:34 | 31.40058 | 121.57106 | 3946 ft | 221 kts | 339° |
| 2026-04-26 08:34 | 31.41580 | 121.56896 | 3492 ft | 225 kts | 5° |
| 2026-04-26 08:35 | 31.42983 | 121.57654 | 3140 ft | 224 kts | 40° |
| 2026-04-26 08:35 | 31.43783 | 121.59164 | 3017 ft | 219 kts | 75° |
| 2026-04-26 08:35 | 31.43731 | 121.60894 | 3013 ft | 213 kts | 109° |
| 2026-04-26 08:35 | 31.43059 | 121.62416 | 3002 ft | 210 kts | 126° |
| 2026-04-26 08:36 | 31.42145 | 121.63733 | 3000 ft | 208 kts | 133° |
| 2026-04-26 08:36 | 31.41143 | 121.64960 | 2995 ft | 208 kts | 138° |
| 2026-04-26 08:36 | 31.40105 | 121.66148 | 2999 ft | 209 kts | 138° |
| 2026-04-26 08:36 | 31.39060 | 121.67327 | 3008 ft | 208 kts | 139° |
| 2026-04-26 08:37 | 31.38021 | 121.68499 | 2988 ft | 207 kts | 138° |
| 2026-04-26 08:37 | 31.36974 | 121.69663 | 2991 ft | 208 kts | 139° |
| 2026-04-26 08:37 | 31.35912 | 121.70778 | 2988 ft | 208 kts | 147° |
| 2026-04-26 08:37 | 31.34636 | 121.71557 | 2996 ft | 206 kts | 162° |
| 2026-04-26 08:38 | 31.33282 | 121.72077 | 2994 ft | 204 kts | 166° |
| 2026-04-26 08:38 | 31.31933 | 121.72575 | 3005 ft | 202 kts | 165° |
| 2026-04-26 08:38 | 31.30622 | 121.73072 | 2966 ft | 196 kts | 164° |
| 2026-04-26 08:38 | 31.29336 | 121.73570 | 2757 ft | 194 kts | 165° |
| 2026-04-26 08:39 | 31.28066 | 121.74056 | 2482 ft | 190 kts | 164° |
| 2026-04-26 08:39 | 31.26816 | 121.74529 | 2228 ft | 188 kts | 163° |
| 2026-04-26 08:39 | 31.25609 | 121.74986 | 1976 ft | 175 kts | 162° |
| 2026-04-26 08:39 | 31.24497 | 121.75409 | 1726 ft | 161 kts | 161° |
| 2026-04-26 08:40 | 31.23469 | 121.75798 | 1530 ft | 149 kts | 160° |
| 2026-04-26 08:40 | 31.22534 | 121.76154 | 1336 ft | 137 kts | 159° |
| 2026-04-26 08:40 | 31.21659 | 121.76496 | 1165 ft | 130 kts | 159° |
| 2026-04-26 08:40 | 31.20798 | 121.76816 | 1019 ft | 129 kts | 160° |
| 2026-04-26 08:41 | 31.19950 | 121.77135 | 841 ft | 128 kts | 159° |
| 2026-04-26 08:41 | 31.19103 | 121.77464 | 670 ft | 129 kts | 159° |
| 2026-04-26 08:41 | 31.18250 | 121.77785 | 488 ft | 128 kts | 159° |
| 2026-04-26 08:41 | 31.17411 | 121.78109 | 311 ft | 126 kts | 159° |
| 2026-04-26 08:42 | 31.16569 | 121.78437 | 144 ft | 129 kts | 160° |
| 2026-04-26 08:42 | 31.15710 | 121.78760 | 26 ft | 129 kts | 160° |
| 2026-04-26 08:42 | 31.15008 | 121.79029 | 19 ft | 69 kts | 163° |